Another Hard Day at the Office Weather Stats

 
 
 

High monthly outside Temperature, 30.6 , C
Low monthly outside Temperature, 9.8 , C
High yearly outside Temperature, 30.9 , C
Low yearly outside Temperature, -2.2 , C

Low monthly barometer, 997.5 , mb
High monthly barometer, 1024.9 , mb
Low yearly barometer, 975.0 , mb
High yearly barometer 1041.1 , mb

High wind speed, 16.0 , mph
Time of High wind speed, 7:37 , mph
High monthly wind speed, 44.0 , mph
High yearly wind speed, 55.0 , mph

 

 




3124
                    Temp     Hi    Low   Out    Dew  Wind  Wind   Wind    Hi    Hi   Wind   Heat    THW                Rain    Heat    Cool    In     In    In     In     In   In Air  Wind  Wind    ISS   Arc.
  Date    Time     Out   Temp   Temp   Hum    Pt. Speed   Dir    Run Speed   Dir  Chill  Index  Index   Bar    Rain  Rate    D-D     D-D    Temp   Hum    Dew   Heat    EMC Density  Samp   Tx   Recept  Int.
---------------------------------------------------------------------------------------------------------------------------------------------------------------------------------------------------------------
28/07/15   0:05   15.9   15.9   15.9    84   13.2  18.0   WSW   1.50  26.0   WSW   12.4   15.9   12.5  1004.4  0.00   0.0   0.008   0.000   25.2    50   14.0   25.1   9.20 1.1548    114    1    100.0    5 
28/07/15   0:10   15.9   15.9   15.8    84   13.2  19.0   WSW   1.58  28.0     W   12.3   15.9   12.3  1004.3  0.00   0.0   0.008   0.000   25.2    50   14.0   25.1   9.20 1.1548    116    1    100.0    5 
28/07/15   0:15   15.8   15.8   15.8    84   13.1  17.0   WSW   1.42  27.0   WSW   12.4   15.8   12.5  1004.3  0.00   0.0   0.009   0.000   25.2    50   14.0   25.1   9.20 1.1548    116    1    100.0    5 
28/07/15   0:20   15.7   15.8   15.7    83   12.8  17.0   WSW   1.42  25.0   WSW   12.3   15.7   12.3  1004.3  0.00   0.0   0.009   0.000   25.1    50   14.0   25.0   9.21 1.1550    117    1    100.0    5 
28/07/15   0:25   15.6   15.7   15.6    83   12.7  16.0   WSW   1.33  26.0     W   12.4   15.6   12.4  1004.3  0.00   0.0   0.009   0.000   25.1    50   14.0   25.0   9.21 1.1550    117    1    100.0    5 
28/07/15   0:30   15.6   15.6   15.6    83   12.7  16.0     W   1.33  25.0     W   12.3   15.6   12.3  1004.4  0.00   0.0   0.010   0.000   25.1    50   13.9   24.9   9.21 1.1554    117    1    100.0    5 
28/07/15   0:35   15.6   15.6   15.6    82   12.5  17.0   WSW   1.42  25.0     W   12.2   15.6   12.2  1004.4  0.00   0.0   0.010   0.000   25.1    50   13.9   24.9   9.21 1.1554    116    1    100.0    5 
28/07/15   0:40   15.6   15.6   15.6    82   12.5  16.0   WSW   1.33  27.0   WNW   12.3   15.6   12.3  1004.4  0.00   0.0   0.010   0.000   25.1    50   13.9   24.9   9.21 1.1555    117    1    100.0    5 
28/07/15   0:45   15.6   15.6   15.6    83   12.7  17.0   WSW   1.42  25.0     W   12.2   15.6   12.2  1004.4  0.00   0.0   0.010   0.000   25.1    50   13.9   24.9   9.21 1.1554    118    1    100.0    5 
28/07/15   0:50   15.6   15.6   15.6    83   12.7  17.0     W   1.42  27.0   WSW   12.2   15.6   12.2  1004.4  0.00   0.0   0.009   0.000   25.0    50   13.9   24.9   9.21 1.1557    117    1    100.0    5 
28/07/15   0:55   15.5   15.6   15.5    82   12.4  15.0     W   1.25  22.0   WSW   12.4   15.5   12.4  1004.4  0.00   0.0   0.010   0.000   25.0    50   13.9   24.9   9.21 1.1557    117    1    100.0    5 
28/07/15   1:00   15.4   15.5   15.4    82   12.4  13.0     W   1.08  24.0   WSW   12.8   15.4   12.8  1004.4  0.00   0.0   0.010   0.000   25.0    50   13.9   24.9   9.21 1.1557    117    1    100.0    5 
28/07/15   1:05   15.4   15.4   15.4    82   12.4  13.0     W   1.08  25.0   WSW   12.8   15.4   12.8  1004.4  0.00   0.0   0.010   0.000   25.0    50   13.9   24.9   9.21 1.1557    116    1    100.0    5 
28/07/15   1:10   15.4   15.4   15.4    82   12.4  13.0     W   1.08  21.0     W   12.8   15.4   12.8  1004.4  0.00   0.0   0.010   0.000   24.9    50   13.8   24.8   9.21 1.1560    115    1    100.0    5 
28/07/15   1:15   15.5   15.5   15.4    82   12.4  14.0     W   1.17  22.0     W   12.7   15.5   12.7  1004.5  0.00   0.0   0.010   0.000   24.9    50   13.8   24.8   9.21 1.1561    117    1    100.0    5 
28/07/15   1:20   15.5   15.5   15.4    82   12.4  14.0     W   1.17  23.0     W   12.7   15.5   12.7  1004.5  0.00   0.0   0.010   0.000   24.9    50   13.8   24.8   9.21 1.1561    117    1    100.0    5 
28/07/15   1:25   15.5   15.5   15.5    83   12.6  15.0     W   1.25  26.0   WSW   12.4   15.5   12.4  1004.5  0.00   0.0   0.010   0.000   24.9    50   13.8   24.8   9.21 1.1561    116    1    100.0    5 
28/07/15   1:30   15.4   15.5   15.4    83   12.6  16.0     W   1.33  24.0   WSW   12.2   15.4   12.2  1004.4  0.00   0.0   0.010   0.000   24.9    50   13.8   24.8   9.21 1.1560    117    1    100.0    5 
28/07/15   1:35   15.4   15.4   15.4    83   12.6  17.0   WSW   1.42  24.0     W   12.1   15.4   12.1  1004.5  0.00   0.0   0.010   0.000   24.9    50   13.8   24.8   9.21 1.1563    117    1    100.0    5 
28/07/15   1:40   15.4   15.4   15.4    84   12.8  17.0   WSW   1.42  26.0     W   12.1   15.4   12.1  1004.4  0.00   0.0   0.010   0.000   24.9    50   13.8   24.8   9.21 1.1563    116    1    100.0    5 
28/07/15   1:45   15.4   15.4   15.4    84   12.7  16.0   WSW   1.33  24.0   WSW   12.2   15.4   12.2  1004.4  0.00   0.0   0.010   0.000   24.9    50   13.8   24.8   9.21 1.1563    117    1    100.0    5 
28/07/15   1:50   15.3   15.4   15.3    83   12.4  17.0   WSW   1.42  27.0   WSW   11.9   15.3   11.9  1004.3  0.00   0.0   0.011   0.000   24.9    50   13.8   24.8   9.21 1.1562    116    1    100.0    5 
28/07/15   1:55   15.3   15.3   15.3    83   12.4  16.0   WSW   1.33  23.0   WSW   12.1   15.3   12.1  1004.4  0.00   0.0   0.011   0.000   24.8    50   13.7   24.8   9.22 1.1565    117    1    100.0    5 
28/07/15   2:00   15.3   15.3   15.3    83   12.4  16.0     W   1.33  26.0     W   12.1   15.3   12.1  1004.3  0.00   0.0   0.011   0.000   24.8    50   13.7   24.8   9.22 1.1564    116    1    100.0    5 
28/07/15   2:05   15.3   15.3   15.2    83   12.4  18.0   WSW   1.50  27.0     W   11.7   15.3   11.7  1004.2  0.00   0.0   0.011   0.000   24.8    50   13.7   24.8   9.22 1.1563    115    1    100.0    5 
28/07/15   2:10   15.2   15.2   15.2    83   12.4  14.0   WSW   1.17  23.0     W   12.3   15.2   12.3  1004.2  0.00   0.0   0.011   0.000   24.8    50   13.6   24.7   9.22 1.1566    117    1    100.0    5 
28/07/15   2:15   15.2   15.2   15.2    83   12.3  14.0     W   1.17  23.0     W   12.3   15.1   12.2  1004.2  0.00   0.0   0.011   0.000   24.8    50   13.6   24.7   9.22 1.1566    116    1    100.0    5 
28/07/15   2:20   15.1   15.2   15.1    82   12.1  12.0     W   1.00  23.0   WSW   12.7   15.1   12.6  1004.3  0.00   0.0   0.011   0.000   24.7    50   13.6   24.7   9.22 1.1570    116    1    100.0    5 
28/07/15   2:25   15.1   15.1   15.0    81   11.8  12.0     W   1.00  21.0   WNW   12.6   14.9   12.5  1004.3  0.00   0.0   0.011   0.000   24.7    50   13.6   24.7   9.22 1.1569    117    1    100.0    5 
28/07/15   2:30   15.1   15.1   15.0    82   12.1  12.0     W   1.00  20.0   WSW   12.7   15.1   12.6  1004.4  0.00   0.0   0.011   0.000   24.7    50   13.6   24.7   9.22 1.1571    117    1    100.0    5 
28/07/15   2:35   15.2   15.2   15.1    82   12.2  13.0     W   1.08  25.0     W   12.6   15.2   12.5  1004.5  0.00   0.0   0.011   0.000   24.7    50   13.6   24.7   9.22 1.1572    117    1    100.0    5 
28/07/15   2:40   15.2   15.3   15.2    82   12.2  13.0   WSW   1.08  20.0     W   12.6   15.2   12.5  1004.5  0.00   0.0   0.011   0.000   24.7    50   13.5   24.6   9.22 1.1574    117    1    100.0    5 
28/07/15   2:45   15.2   15.2   15.2    82   12.1  15.0     W   1.25  25.0   WSW   12.1   15.1   12.0  1004.5  0.00   0.0   0.011   0.000   24.7    50   13.5   24.6   9.22 1.1574    116    1    100.0    5 
28/07/15   2:50   15.2   15.2   15.2    82   12.1  14.0   WSW   1.17  26.0   WSW   12.3   15.1   12.2  1004.4  0.00   0.0   0.011   0.000   24.7    50   13.5   24.6   9.22 1.1574    116    1    100.0    5 
28/07/15   2:55   15.1   15.2   15.1    81   11.9  15.0     W   1.25  24.0     W   12.0   15.1   11.9  1004.5  0.00   0.0   0.011   0.000   24.7    50   13.5   24.6   9.22 1.1575    117    1    100.0    5 
28/07/15   3:00   15.1   15.1   15.1    80   11.6  12.0     W   1.00  21.0   WSW   12.6   14.9   12.5  1004.5  0.00   0.0   0.011   0.000   24.7    50   13.5   24.6   9.22 1.1575    117    1    100.0    5 
28/07/15   3:05   15.1   15.1   15.1    80   11.6  14.0     W   1.17  22.0     W   12.2   14.9   12.1  1004.5  0.00   0.0   0.011   0.000   24.7    50   13.5   24.6   9.22 1.1574    117    1    100.0    5 
28/07/15   3:10   15.1   15.1   15.1    80   11.6  14.0     W   1.17  23.0     W   12.2   14.9   12.1  1004.4  0.00   0.0   0.011   0.000   24.6    50   13.5   24.6   9.22 1.1576    116    1    100.0    5 
28/07/15   3:15   15.1   15.1   15.1    80   11.7  13.0     W   1.08  19.0   WNW   12.4   15.0   12.3  1004.4  0.00   0.0   0.011   0.000   24.6    50   13.5   24.6   9.22 1.1576    116    1    100.0    5 
28/07/15   3:20   15.1   15.1   15.1    80   11.7  14.0     W   1.17  23.0   WSW   12.2   15.0   12.1  1004.4  0.00   0.0   0.011   0.000   24.6    50   13.4   24.6   9.23 1.1580    117    1    100.0    5 
28/07/15   3:25   15.2   15.2   15.1    81   11.9  13.0     W   1.08  21.0     W   12.5   15.1   12.4  1004.4  0.00   0.0   0.011   0.000   24.6    50   13.4   24.6   9.23 1.1579    117    1    100.0    5 
28/07/15   3:30   15.1   15.2   15.1    80   11.7  13.0     W   1.08  20.0     W   12.4   15.0   12.3  1004.5  0.00   0.0   0.011   0.000   24.6    50   13.4   24.6   9.23 1.1580    116    1    100.0    5 
28/07/15   3:35   15.1   15.1   15.1    80   11.6  13.0     W   1.08  19.0   WNW   12.3   14.9   12.2  1004.4  0.00   0.0   0.011   0.000   24.6    50   13.4   24.6   9.23 1.1579    117    1    100.0    5 
28/07/15   3:40   15.0   15.1   15.0    80   11.6  15.0     W   1.25  25.0     W   11.9   14.9   11.8  1004.4  0.00   0.0   0.012   0.000   24.6    50   13.4   24.6   9.23 1.1580    117    1    100.0    5 
28/07/15   3:45   14.9   15.0   14.9    79   11.3  12.0     W   1.00  19.0     W   12.5   14.8   12.3  1004.4  0.00   0.0   0.012   0.000   24.5    50   13.4   24.5   9.23 1.1582    117    1    100.0    5 
28/07/15   3:50   14.9   14.9   14.9    79   11.3  14.0     W   1.17  20.0     W   12.0   14.7   11.8  1004.5  0.00   0.0   0.012   0.000   24.5    50   13.4   24.5   9.23 1.1583    117    1    100.0    5 
28/07/15   3:55   14.9   14.9   14.9    78   11.1  14.0     W   1.17  25.0     W   12.1   14.8   11.9  1004.5  0.00   0.0   0.012   0.000   24.5    50   13.4   24.5   9.23 1.1584    118    1    100.0    5 
28/07/15   4:00   14.9   14.9   14.9    78   11.1  11.0     W   0.92  22.0     W   12.8   14.7   12.6  1004.5  0.00   0.0   0.012   0.000   24.5    50   13.4   24.5   9.23 1.1583    117    1    100.0    5 
28/07/15   4:05   14.8   14.9   14.8    78   11.0  11.0     W   0.92  21.0     W   12.7   14.7   12.5  1004.5  0.00   0.0   0.012   0.000   24.4    50   13.3   24.4   9.23 1.1586    116    1    100.0    5 
28/07/15   4:10   14.8   14.8   14.8    78   11.0  12.0     W   1.00  19.0     W   12.3   14.6   12.2  1004.4  0.00   0.0   0.012   0.000   24.4    50   13.3   24.4   9.23 1.1585    116    1    100.0    5 
28/07/15   4:15   14.7   14.8   14.7    78   10.9  10.0     W   0.83  18.0     W   12.9   14.6   12.7  1004.4  0.00   0.0   0.013   0.000   24.4    50   13.3   24.4   9.23 1.1585    117    1    100.0    5 
28/07/15   4:20   14.7   14.7   14.7    78   10.9  11.0     W   0.92  19.0     W   12.5   14.5   12.3  1004.4  0.00   0.0   0.013   0.000   24.4    50   13.3   24.4   9.23 1.1585    116    1    100.0    5 
28/07/15   4:25   14.6   14.7   14.6    78   10.8  12.0     W   1.00  22.0     W   12.1   14.4   11.9  1004.4  0.00   0.0   0.013   0.000   24.4    50   13.3   24.4   9.23 1.1585    116    1    100.0    5 
28/07/15   4:30   14.6   14.7   14.6    78   10.8  12.0     W   1.00  19.0     W   12.1   14.4   11.9  1004.6  0.00   0.0   0.013   0.000   24.4    50   13.3   24.4   9.23 1.1587    117    1    100.0    5 
28/07/15   4:35   14.6   14.6   14.6    79   11.0  12.0     W   1.00  17.0     W   12.1   14.4   11.9  1004.6  0.00   0.0   0.013   0.000   24.4    50   13.3   24.4   9.23 1.1589    116    1    100.0    5 
28/07/15   4:40   14.5   14.6   14.5    78   10.7  12.0     W   1.00  22.0   WSW   12.0   14.3   11.8  1004.6  0.00   0.0   0.013   0.000   24.4    50   13.3   24.4   9.23 1.1590    116    1    100.0    5 
28/07/15   4:45   14.5   14.5   14.5    78   10.7  13.0     W   1.08  21.0   WSW   11.7   14.3   11.6  1004.7  0.00   0.0   0.013   0.000   24.4    50   13.3   24.4   9.23 1.1591    117    1    100.0    5 
28/07/15   4:50   14.4   14.5   14.4    78   10.7  10.0     W   0.83  19.0     W   12.6   14.3   12.4  1004.6  0.00   0.0   0.014   0.000   24.4    50   13.3   24.4   9.23 1.1590    116    1    100.0    5 
28/07/15   4:55   14.3   14.4   14.3    79   10.7   9.0     W   0.75  16.0   WNW   12.8   14.2   12.7  1004.7  0.00   0.0   0.014   0.000   24.4    50   13.3   24.4   9.23 1.1591    116    1    100.0    5 
28/07/15   5:00   14.3   14.3   14.3    78   10.5  13.0     W   1.08  21.0   WNW   11.6   14.2   11.4  1004.5  0.00   0.0   0.014   0.000   24.3    50   13.2   24.3   9.23 1.1592    117    1    100.0    5 
28/07/15   5:05   14.3   14.3   14.3    78   10.5  10.0     W   0.83  20.0     W   12.4   14.1   12.2  1004.6  0.00   0.0   0.014   0.000   24.3    50   13.2   24.3   9.23 1.1593    116    1    100.0    5 
28/07/15   5:10   14.3   14.3   14.3    78   10.5  11.0     W   0.92  20.0   WSW   12.1   14.1   11.9  1004.7  0.00   0.0   0.014   0.000   24.3    50   13.2   24.3   9.23 1.1594    117    1    100.0    5 
28/07/15   5:15   14.3   14.3   14.3    78   10.5  11.0     W   0.92  21.0     W   12.1   14.1   11.9  1004.8  0.00   0.0   0.014   0.000   24.3    50   13.2   24.3   9.23 1.1595    117    1    100.0    5 
28/07/15   5:20   14.2   14.3   14.2    78   10.4  10.0     W   0.83  17.0     W   12.3   14.1   12.2  1004.8  0.00   0.0   0.014   0.000   24.3    50   13.2   24.3   9.23 1.1595    117    1    100.0    5 
28/07/15   5:25   14.2   14.2   14.2    78   10.4  10.0     W   0.83  19.0     W   12.3   14.1   12.2  1004.9  0.00   0.0   0.014   0.000   24.3    50   13.2   24.3   9.24 1.1599    116    1    100.0    5 
28/07/15   5:30   14.2   14.2   14.2    79   10.6  10.0     W   0.83  18.0     W   12.3   14.0   12.1  1004.9  0.00   0.0   0.014   0.000   24.3    50   13.2   24.3   9.24 1.1599    116    1    100.0    5 
28/07/15   5:35   14.2   14.2   14.2    79   10.6  11.0     W   0.92  18.0     W   11.9   14.0   11.8  1004.9  0.00   0.0   0.014   0.000   24.3    50   13.2   24.3   9.24 1.1599    117    1    100.0    5 
28/07/15   5:40   14.2   14.2   14.2    79   10.6  12.0     W   1.00  21.0   WSW   11.6   14.0   11.4  1005.0  0.00   0.0   0.014   0.000   24.3    50   13.2   24.3   9.24 1.1600    116    1    100.0    5 
28/07/15   5:45   14.2   14.2   14.2    79   10.6  14.0     W   1.17  24.0     W   11.2   14.1   11.1  1005.0  0.00   0.0   0.014   0.000   24.3    50   13.2   24.3   9.24 1.1600    117    1    100.0    5 
28/07/15   5:50   14.2   14.2   14.2    78   10.4  13.0   WSW   1.08  20.0   WSW   11.4   14.1   11.3  1005.0  0.00   0.0   0.014   0.000   24.2    50   13.1   24.2   9.24 1.1602    117    1    100.0    5 
28/07/15   5:55   14.2   14.2   14.2    78   10.4  11.0     W   0.92  22.0   WSW   12.0   14.1   11.8  1004.9  0.00   0.0   0.014   0.000   24.2    50   13.1   24.2   9.24 1.1602    116    1    100.0    5 
28/07/15   6:00   14.2   14.2   14.2    78   10.4  13.0     W   1.08  23.0     W   11.4   14.1   11.3  1004.9  0.00   0.0   0.014   0.000   24.2    50   13.1   24.2   9.24 1.1602    116    1    100.0    5 
28/07/15   6:05   14.2   14.2   14.2    78   10.4  12.0     W   1.00  20.0     W   11.7   14.1   11.5  1004.9  0.00   0.0   0.014   0.000   24.2    50   13.1   24.2   9.24 1.1601    117    1    100.0    5 
28/07/15   6:10   14.3   14.3   14.2    78   10.5  14.0     W   1.17  23.0     W   11.3   14.1   11.1  1005.0  0.00   0.0   0.014   0.000   24.2    50   13.1   24.2   9.24 1.1606    117    1    100.0    5 
28/07/15   6:15   14.3   14.3   14.3    78   10.5  11.0     W   0.92  18.0     W   12.1   14.1   11.9  1005.2  0.00   0.0   0.014   0.000   24.2    50   13.1   24.2   9.24 1.1607    117    1    100.0    5 
28/07/15   6:20   14.2   14.3   14.2    78   10.4   9.0     W   0.75  15.0     W   12.7   14.1   12.5  1005.1  0.00   0.0   0.014   0.000   24.2    50   13.1   24.2   9.24 1.1606    117    1    100.0    5 
28/07/15   6:25   14.2   14.2   14.2    78   10.4   9.0     W   0.75  14.0     W   12.6   14.0   12.4  1005.1  0.00   0.0   0.014   0.000   24.2    50   13.1   24.2   9.24 1.1607    117    1    100.0    5 
28/07/15   6:30   14.2   14.2   14.2    78   10.4   8.0     W   0.67  16.0     W   13.1   14.0   12.9  1005.2  0.00   0.0   0.014   0.000   24.1    50   13.0   24.2   9.24 1.1611    115    1    100.0    5 
28/07/15   6:35   14.1   14.2   14.1    79   10.5   9.0     W   0.75  14.0   WSW   12.6   13.9   12.4  1005.1  0.00   0.0   0.015   0.000   24.2    50   13.1   24.2   9.24 1.1606    116    1    100.0    5 
28/07/15   6:40   14.2   14.2   14.1    79   10.6   8.0     W   0.67  15.0     W   13.1   14.0   12.9  1005.2  0.00   0.0   0.014   0.000   24.2    50   13.1   24.2   9.24 1.1608    117    1    100.0    5 
28/07/15   6:45   14.2   14.2   14.2    79   10.6   9.0     W   0.75  15.0     W   12.6   14.0   12.4  1005.3  0.00   0.0   0.014   0.000   24.2    50   13.1   24.2   9.24 1.1609    117    1    100.0    5 
28/07/15   6:50   14.3   14.3   14.2    78   10.5  10.0     W   0.83  15.0   WSW   12.4   14.1   12.2  1005.4  0.00   0.0   0.014   0.000   24.2    50   13.1   24.2   9.24 1.1610    116    1    100.0    5 
28/07/15   6:55   14.4   14.4   14.3    78   10.6  11.0     W   0.92  23.0     W   12.2   14.2   12.0  1005.5  0.00   0.0   0.014   0.000   24.2    50   13.1   24.2   9.24 1.1611    115    1    100.0    5 
28/07/15   7:00   14.5   14.5   14.4    78   10.7  11.0     W   0.92  19.0     W   12.3   14.3   12.1  1005.5  0.00   0.0   0.013   0.000   24.2    50   13.1   24.2   9.24 1.1612    116    1    100.0    5 
28/07/15   7:05   14.6   14.6   14.5    78   10.8  11.0     W   0.92  16.0     W   12.3   14.4   12.2  1005.7  0.00   0.0   0.013   0.000   24.2    50   13.1   24.2   9.24 1.1613    117    1    100.0    5 
28/07/15   7:10   14.6   14.6   14.6    77   10.6  12.0     W   1.00  20.0     W   12.1   14.4   11.9  1005.7  0.00   0.0   0.013   0.000   24.2    50   13.1   24.2   9.24 1.1614    117    1    100.0    5 
28/07/15   7:15   14.7   14.7   14.6    77   10.7  12.0     W   1.00  20.0     W   12.3   14.5   12.1  1005.8  0.00   0.0   0.013   0.000   24.2    50   13.1   24.2   9.24 1.1615    116    1    100.0    5 
28/07/15   7:20   14.8   14.8   14.7    77   10.8  14.0     W   1.17  22.0     W   11.8   14.6   11.6  1005.8  0.00   0.0   0.012   0.000   24.2    50   13.1   24.2   9.24 1.1614    114    1    100.0    5 
28/07/15   7:25   14.8   14.8   14.8    76   10.6  12.0     W   1.00  20.0     W   12.4   14.6   12.2  1005.8  0.00   0.0   0.012   0.000   24.2    50   13.1   24.2   9.24 1.1612    117    1    100.0    5 
28/07/15   7:30   14.8   14.8   14.8    76   10.6  14.0     W   1.17  23.0   WSW   11.8   14.6   11.6  1006.0  0.00   0.0   0.012   0.000   24.2    50   13.1   24.2   9.24 1.1614    116    1    100.0    5 
28/07/15   7:35   14.9   14.9   14.8    76   10.7  12.0     W   1.00  18.0   WSW   12.4   14.7   12.2  1006.0  0.00   0.0   0.012   0.000   24.2    50   13.1   24.2   9.24 1.1614    117    1    100.0    5 
28/07/15   7:40   14.9   14.9   14.9    76   10.7  15.0   WSW   1.25  23.0   WSW   11.8   14.7   11.6  1005.8  0.00   0.0   0.012   0.000   24.2    50   13.1   24.2   9.24 1.1612    117    1    100.0    5 
28/07/15   7:45   15.0   15.0   14.9    76   10.8  13.0     W   1.08  21.0     W   12.3   14.8   12.1  1006.0  0.00   0.0   0.012   0.000   24.2    50   13.1   24.2   9.24 1.1614    117    1    100.0    5 
28/07/15   7:50   15.1   15.1   15.0    75   10.7  11.0     W   0.92  19.0     W   13.0   14.8   12.7  1005.9  0.00   0.0   0.011   0.000   24.3    50   13.2   24.3   9.24 1.1610    116    1    100.0    5 
28/07/15   7:55   15.2   15.2   15.1    75   10.8  11.0     W   0.92  22.0     W   13.1   14.9   12.8  1005.8  0.00   0.0   0.011   0.000   24.3    50   13.2   24.3   9.24 1.1610    117    1    100.0    5 
28/07/15   8:00   15.1   15.2   15.1    75   10.7  13.0     W   1.08  23.0     W   12.4   14.8   12.1  1005.8  0.00   0.0   0.011   0.000   24.2    50   13.1   24.2   9.24 1.1612    117    1    100.0    5 
28/07/15   8:05   15.1   15.1   15.1    75   10.7  14.0     W   1.17  24.0   WNW   12.2   14.8   11.9  1005.8  0.00   0.0   0.011   0.000   24.3    50   13.2   24.3   9.24 1.1610    117    1    100.0    5 
28/07/15   8:10   15.1   15.1   15.1    75   10.7  15.0     W   1.25  27.0     W   11.9   14.8   11.7  1005.8  0.00   0.0   0.011   0.000   24.3    50   13.2   24.3   9.24 1.1610    116    1    100.0    5 
28/07/15   8:15   15.1   15.1   15.1    75   10.7  13.0     W   1.08  24.0   WSW   12.4   14.8   12.1  1005.8  0.00   0.0   0.011   0.000   24.3    50   13.2   24.3   9.24 1.1610    114    1    100.0    5 
28/07/15   8:20   15.1   15.1   15.1    75   10.7  14.0     W   1.17  23.0   WSW   12.2   14.8   11.9  1005.9  0.00   0.0   0.011   0.000   24.3    50   13.2   24.3   9.24 1.1611    117    1    100.0    5 
28/07/15   8:25   15.1   15.1   15.1    74   10.5  14.0     W   1.17  27.0     W   12.2   14.8   11.9  1006.0  0.00   0.0   0.011   0.000   24.3    50   13.2   24.3   9.24 1.1611    117    1    100.0    5 
28/07/15   8:30   15.2   15.2   15.1    75   10.8  12.0     W   1.00  20.0     W   12.8   14.9   12.5  1006.0  0.00   0.0   0.011   0.000   24.3    50   13.2   24.3   9.24 1.1612    117    1    100.0    5 
28/07/15   8:35   15.2   15.2   15.2    74   10.6  14.0     W   1.17  24.0     W   12.3   14.9   12.1  1006.0  0.00   0.0   0.011   0.000   24.3    50   13.2   24.3   9.23 1.1609    116    1    100.0    5 
28/07/15   8:40   15.3   15.3   15.2    74   10.7  13.0     W   1.08  21.0     W   12.6   15.0   12.3  1006.0  0.00   0.0   0.011   0.000   24.3    50   13.2   24.3   9.23 1.1609    117    1    100.0    5 
28/07/15   8:45   15.4   15.4   15.3    74   10.8  11.0     W   0.92  19.0   WNW   13.4   15.2   13.1  1006.0  0.00   0.0   0.010   0.000   24.3    50   13.2   24.3   9.23 1.1608    115    1    100.0    5 
28/07/15   8:50   15.6   15.6   15.4    73   10.7  14.0     W   1.17  22.0     W   12.7   15.3   12.4  1006.1  0.00   0.0   0.010   0.000   24.3    50   13.2   24.3   9.23 1.1610    117    1    100.0    5 
28/07/15   8:55   15.7   15.7   15.6    72   10.7  14.0   WSW   1.17  21.0   WNW   12.9   15.4   12.6  1006.0  0.00   0.0   0.009   0.000   24.3    50   13.2   24.3   9.23 1.1609    117    1    100.0    5 
28/07/15   9:00   15.9   15.9   15.7    72   10.8  13.0     W   1.08  22.0     W   13.3   15.6   13.1  1006.1  0.00   0.0   0.008   0.000   24.4    50   13.3   24.4   9.23 1.1607    117    1    100.0    5 
28/07/15   9:05   15.9   15.9   15.9    72   10.9  11.0   WSW   0.92  19.0     W   13.9   15.7   13.7  1006.1  0.00   0.0   0.008   0.000   24.4    50   13.3   24.4   9.23 1.1607    116    1    100.0    5 
28/07/15   9:10   15.9   16.0   15.9    71   10.7  14.0   WSW   1.17  26.0   WSW   13.2   15.7   12.9  1006.1  0.00   0.0   0.008   0.000   24.4    50   13.3   24.4   9.23 1.1607    117    1    100.0    5 
28/07/15   9:15   15.8   15.9   15.8    70   10.4  15.0     W   1.25  24.0     W   12.8   15.5   12.5  1006.1  0.00   0.0   0.009   0.000   24.4    50   13.3   24.4   9.23 1.1605    117    1    100.0    5 
28/07/15   9:20   15.9   15.9   15.8    71   10.7  12.0     W   1.00  21.0     W   13.7   15.7   13.4  1006.2  0.00   0.0   0.008   0.000   24.4    50   13.3   24.4   9.23 1.1605    117    1    100.0    5 
28/07/15   9:25   16.0   16.0   15.9    70   10.5  13.0     W   1.08  22.0     W   13.4   15.7   13.1  1006.2  0.00   0.0   0.008   0.000   24.4    51   13.6   24.5   9.35 1.1602    115    1    100.0    5 
28/07/15   9:30   16.0   16.1   16.0    69   10.3  14.0     W   1.17  23.0   WSW   13.2   15.7   12.9  1006.3  0.00   0.0   0.008   0.000   24.5    52   14.0   24.6   9.53 1.1597    116    1    100.0    5 
28/07/15   9:35   16.1   16.1   16.0    69   10.4  14.0     W   1.17  20.0     W   13.3   15.8   13.0  1006.1  0.00   0.0   0.008   0.000   24.6    54   14.6   24.7   9.83 1.1585    114    1    100.0    5 
28/07/15   9:40   16.2   16.2   16.1    71   10.9  14.0     W   1.17  23.0     W   13.4   15.9   13.1  1006.1  0.00   0.0   0.008   0.000   24.6    55   15.0   24.8  10.00 1.1579    117    1    100.0    5 
28/07/15   9:45   16.2   16.3   16.2    71   11.0  16.0   WSW   1.33  24.0   WSW   13.1   15.9   12.8  1006.1  0.00   0.0   0.007   0.000   24.7    54   14.7   24.8   9.82 1.1579    117    1    100.0    5 
28/07/15   9:50   16.3   16.3   16.2    70   10.8  15.0     W   1.25  24.0     W   13.3   15.9   13.0  1006.1  0.00   0.0   0.007   0.000   24.7    53   14.5   24.8   9.65 1.1580    117    1    100.0    5 
28/07/15   9:55   16.2   16.3   16.2    68   10.3  17.0     W   1.42  25.0     W   12.9   15.8   12.6  1006.2  0.00   0.0   0.007   0.000   24.8    53   14.5   24.8   9.65 1.1578    116    1    100.0    5 
28/07/15  10:00   16.3   16.3   16.2    68   10.4  18.0   WSW   1.50  25.0     W   12.9   16.0   12.6  1006.2  0.00   0.0   0.007   0.000   24.8    53   14.5   24.8   9.65 1.1578    116    1    100.0    5 
28/07/15  10:05   16.4   16.4   16.4    68   10.5  17.0   WSW   1.42  25.0   WSW   13.2   16.1   12.9  1006.2  0.00   0.0   0.007   0.000   24.8    53   14.6   24.9   9.65 1.1576    117    1    100.0    5 
28/07/15  10:10   16.3   16.4   16.3    69   10.6  17.0   WSW   1.42  24.0   WSW   13.0   15.9   12.7  1006.2  0.00   0.0   0.007   0.000   24.9    53   14.7   24.9   9.65 1.1573    117    1    100.0    5 
28/07/15  10:15   16.3   16.3   16.3    69   10.6  17.0   WSW   1.42  25.0   WSW   13.0   15.9   12.7  1006.2  0.00   0.0   0.007   0.000   24.9    53   14.7   24.9   9.65 1.1573    118    1    100.0    5 
28/07/15  10:20   16.3   16.3   16.3    70   10.8  15.0   WSW   1.25  24.0   WSW   13.3   15.9   13.0  1006.3  0.00   0.0   0.007   0.000   24.9    53   14.7   25.0   9.65 1.1571    116    1    100.0    5 
28/07/15  10:25   16.3   16.3   16.3    69   10.6  16.0   WSW   1.33  24.0   WSW   13.2   15.9   12.8  1006.2  0.00   0.0   0.007   0.000   25.0    53   14.8   25.1   9.65 1.1567    117    1    100.0    5 
28/07/15  10:30   16.3   16.3   16.3    70   10.8  14.0   WSW   1.17  22.0     W   13.6   16.0   13.3  1006.2  0.00   0.0   0.007   0.000   25.1    52   14.5   25.1   9.51 1.1568    116    1    100.0    5 
28/07/15  10:35   16.4   16.4   16.3    70   11.0  16.0   WSW   1.33  24.0   WSW   13.4   16.2   13.1  1006.2  0.00   0.0   0.007   0.000   25.1    52   14.5   25.1   9.51 1.1567    116    1    100.0    5 
28/07/15  10:40   16.3   16.4   16.3    69   10.6  18.0   WSW   1.50  25.0   WSW   12.8   15.9   12.5  1006.2  0.00   0.0   0.007   0.000   25.1    52   14.6   25.1   9.51 1.1565    117    1    100.0    5 
28/07/15  10:45   16.2   16.3   16.2    70   10.7  16.0   WSW   1.33  23.0   WSW   13.1   15.8   12.7  1006.2  0.00   0.0   0.008   0.000   25.1    52   14.6   25.1   9.51 1.1565    117    1    100.0    5 
28/07/15  10:50   16.0   16.2   16.0    69   10.3  16.0   WSW   1.33  25.0   WSW   12.9   15.7   12.6  1006.2  0.00   0.0   0.008   0.000   25.2    52   14.6   25.2   9.50 1.1562    117    1    100.0    5 
28/07/15  10:55   16.0   16.0   16.0    70   10.5  15.0   WSW   1.25  22.0     W   13.1   15.7   12.7  1006.2  0.00   0.0   0.008   0.000   25.2    51   14.3   25.2   9.35 1.1566    117    1    100.0    5 
28/07/15  11:00   16.0   16.1   15.9    71   10.7  14.0   WSW   1.17  23.0    SW   13.2   15.7   12.9  1006.2  0.00   0.0   0.008   0.000   25.2    51   14.4   25.2   9.35 1.1563    115    1    100.0    5 
28/07/15  11:05   16.0   16.0   15.9    68   10.1  14.0     W   1.17  25.0     W   13.2   15.6   12.8  1006.3  0.00   0.0   0.008   0.000   25.2    51   14.4   25.2   9.35 1.1564    117    1    100.0    5 
28/07/15  11:10   16.1   16.1   16.0    69   10.4  12.0     W   1.00  22.0     W   13.8   15.7   13.4  1006.4  0.00   0.0   0.008   0.000   25.2    51   14.4   25.2   9.35 1.1566    117    1    100.0    5 
28/07/15  11:15   16.3   16.3   16.1    69   10.6  13.0     W   1.08  23.0     W   13.8   15.9   13.4  1006.4  0.00   0.0   0.007   0.000   25.3    51   14.4   25.3   9.35 1.1563    117    1    100.0    5 
28/07/15  11:20   16.3   16.3   16.3    71   11.0  15.0   WSW   1.25  22.0   WSW   13.3   16.0   13.1  1006.4  0.00   0.0   0.007   0.000   25.3    51   14.4   25.3   9.35 1.1562    118    1    100.0    5 
28/07/15  11:25   16.4   16.4   16.3    72   11.4  15.0   WSW   1.25  22.0   WSW   13.6   16.2   13.3  1006.4  0.00   0.0   0.007   0.000   25.3    50   14.1   25.2   9.20 1.1567    117    1    100.0    5 
28/07/15  11:30   16.5   16.6   16.4    71   11.2  14.0   WSW   1.17  22.0   WSW   13.8   16.2   13.5  1006.4  0.00   0.0   0.006   0.000   25.3    51   14.5   25.3   9.35 1.1560    115    1    100.0    5 
28/07/15  11:35   16.4   16.5   16.4    71   11.2  15.0   WSW   1.25  25.0   WSW   13.6   16.2   13.3  1006.4  0.00   0.0   0.007   0.000   25.4    51   14.5   25.4   9.35 1.1558    117    1    100.0    5 
28/07/15  11:40   16.1   16.4   16.1    72   11.0  18.0   WSW   1.50  23.0   WSW   12.6   15.8   12.3  1006.5  0.00   0.0   0.008   0.000   25.4    50   14.2   25.3   9.20 1.1562    117    1    100.0    5 
28/07/15  11:45   16.1   16.1   16.0    73   11.2  17.0   WSW   1.42  28.0   WSW   12.8   15.8   12.6  1006.5  0.00   0.0   0.008   0.000   25.4    50   14.2   25.3   9.20 1.1562    115    1    100.0    5 
28/07/15  11:50   16.1   16.1   16.0    71   10.8  14.0   WSW   1.17  21.0   WSW   13.3   15.8   13.0  1006.6  0.00   0.0   0.008   0.000   25.4    50   14.3   25.4   9.19 1.1561    117    1    100.0    5 
28/07/15  11:55   16.2   16.2   16.1    72   11.1  15.0   WSW   1.25  23.0     W   13.2   15.9   12.9  1006.6  0.00   0.0   0.008   0.000   25.4    50   14.3   25.4   9.19 1.1561    117    1    100.0    5 
28/07/15  12:00   16.1   16.2   16.1    73   11.2  17.0   WSW   1.42  23.0   WSW   12.8   15.8   12.6  1006.5  0.00   0.0   0.008   0.000   25.5    50   14.3   25.5   9.19 1.1557    116    1    100.0    5 
28/07/15  12:05   16.1   16.1   16.1    71   10.8  16.0   WSW   1.33  22.0    SW   12.9   15.8   12.7  1006.7  0.00   0.0   0.008   0.000   25.5    50   14.3   25.5   9.19 1.1559    117    1    100.0    5 
28/07/15  12:10   16.0   16.1   16.0    74   11.4  16.0   WSW   1.33  25.0     W   12.9   15.8   12.7  1006.7  0.00   0.0   0.008   0.000   25.5    50   14.3   25.5   9.19 1.1559    115    1    100.0    5 
28/07/15  12:15   16.0   16.1   15.9    76   11.8  18.0   WSW   1.50  24.0   WSW   12.6   15.8   12.4  1006.8  0.00   0.0   0.008   0.000   25.6    50   14.4   25.6   9.19 1.1557    117    1    100.0    5 
28/07/15  12:20   15.9   16.1   15.9    75   11.5  18.0   WSW   1.50  25.0   WSW   12.4   15.7   12.3  1006.8  0.00   0.0   0.008   0.000   25.6    50   14.4   25.6   9.19 1.1557    116    1    100.0    5 
28/07/15  12:25   15.9   16.0   15.8    76   11.7  17.0   WSW   1.42  25.0   WSW   12.6   15.8   12.4  1006.7  0.00   0.0   0.008   0.000   25.6    50   14.4   25.6   9.19 1.1557    118    1    100.0    5 
28/07/15  12:30   15.8   15.9   15.8    76   11.6  21.0   WSW   1.75  29.0   WSW   12.0   15.7   11.8  1006.7  0.00   0.0   0.009   0.000   25.6    49   14.1   25.5   8.99 1.1560    117    1    100.0    5 
28/07/15  12:35   16.0   16.0   15.8    77   12.0  22.0   WSW   1.83  28.0    SW   12.1   15.9   11.9  1006.8  0.00   0.0   0.008   0.000   25.6    49   14.1   25.6   8.99 1.1558    117    1    100.0    5 
28/07/15  12:40   16.1   16.1   16.0    77   12.1  22.0   WSW   1.83  28.0   NNW   12.2   16.0   12.1  1006.7  0.00   0.0   0.008   0.000   25.6    49   14.1   25.6   8.99 1.1558    117    1    100.0    5 
28/07/15  12:45   16.3   16.3   16.1    77   12.2  21.0   WSW   1.75  29.0   WSW   12.5   16.2   12.4  1006.7  0.00   0.0   0.007   0.000   25.6    49   14.1   25.6   8.99 1.1558    117    1    100.0    5 
28/07/15  12:50   16.3   16.3   16.2    76   12.0  21.0   WSW   1.75  29.0    SW   12.5   16.2   12.4  1006.8  0.00   0.0   0.007   0.000   25.6    49   14.1   25.6   8.99 1.1558    117    1    100.0    5 
28/07/15  12:55   16.3   16.3   16.3    76   12.0  21.0   WSW   1.75  28.0   WSW   12.5   16.2   12.4  1006.8  0.00   0.0   0.007   0.000   25.7    49   14.2   25.7   8.99 1.1556    117    1    100.0    5 
28/07/15  13:00   16.5   16.5   16.3    75   12.1  22.0   WSW   1.83  29.0   WSW   12.6   16.4   12.5  1006.8  0.00   0.0   0.006   0.000   25.7    49   14.2   25.7   8.99 1.1556    115    1    100.0    5 
28/07/15  13:05   16.4   16.5   16.3    77   12.3  22.0   WSW   1.83  30.0    SW   12.5   16.3   12.4  1006.9  0.00   0.0   0.007   0.000   25.7    48   13.9   25.7   8.88 1.1558    116    1    100.0    5 
28/07/15  13:10   16.2   16.4   16.2    76   12.0  23.0   WSW   1.92  29.0   WSW   12.2   16.1   12.1  1006.8  0.00   0.0   0.007   0.000   25.7    48   13.9   25.7   8.88 1.1557    117    1    100.0    5 
28/07/15  13:15   16.0   16.2   16.0    76   11.8  24.0   WSW   2.00  29.0   WSW   11.9   15.8   11.7  1006.8  0.00   0.0   0.008   0.000   25.7    48   13.9   25.7   8.88 1.1557    117    1    100.0    5 
28/07/15  13:20   16.1   16.1   16.0    77   12.1  24.0   WSW   2.00  29.0    SW   12.0   16.0   11.9  1006.8  0.00   0.0   0.008   0.000   25.7    48   13.9   25.7   8.88 1.1557    117    1    100.0    5 
28/07/15  13:25   16.3   16.3   16.1    76   12.0  23.0   WSW   1.92  29.0   WSW   12.3   16.2   12.2  1006.9  0.00   0.0   0.007   0.000   25.7    48   13.9   25.7   8.88 1.1558    118    1    100.0    5 
28/07/15  13:30   16.3   16.3   16.2    76   12.0  24.0   WSW   2.00  30.0   WSW   12.2   16.2   12.1  1006.9  0.00   0.0   0.007   0.000   25.7    48   13.9   25.7   8.88 1.1558    117    1    100.0    5 
28/07/15  13:35   16.3   16.3   16.2    77   12.2  23.0   WSW   1.92  30.0   WSW   12.3   16.2   12.2  1006.9  0.00   0.0   0.007   0.000   25.7    48   13.9   25.7   8.88 1.1558    117    1    100.0    5 
28/07/15  13:40   16.3   16.3   16.3    76   12.0  23.0   WSW   1.92  31.0   WSW   12.3   16.2   12.2  1006.9  0.00   0.0   0.007   0.000   25.8    48   13.9   25.7   8.88 1.1555    117    1    100.0    5 
28/07/15  13:45   16.4   16.4   16.3    76   12.2  25.0   WSW   2.08  31.0   WSW   12.3   16.3   12.2  1006.8  0.00   0.0   0.007   0.000   25.8    47   13.6   25.7   8.68 1.1558    115    1    100.0    5 
28/07/15  13:50   16.5   16.6   16.5    77   12.5  24.0   WSW   2.00  30.0   WSW   12.4   16.4   12.4  1006.7  0.00   0.0   0.006   0.000   25.8    47   13.6   25.7   8.68 1.1557    117    1    100.0    5 
28/07/15  13:55   16.6   16.6   16.4    77   12.5  26.0   WSW   2.17  30.0   WSW   12.3   16.5   12.3  1006.8  0.00   0.0   0.006   0.000   25.8    47   13.6   25.7   8.68 1.1558    117    1    100.0    5 
28/07/15  14:00   16.8   16.8   16.6    77   12.7  23.0   WSW   1.92  29.0   WSW   12.8   16.8   12.8  1006.7  0.00   0.0   0.005   0.000   25.8    47   13.6   25.7   8.68 1.1557    117    1    100.0    5 
28/07/15  14:05   17.0   17.1   16.8    73   12.1  20.0   WSW   1.67  26.0   WSW   13.4   16.9   13.3  1006.7  0.00   0.0   0.005   0.000   25.8    47   13.6   25.7   8.68 1.1557    117    1    100.0    5 
28/07/15  14:10   17.2   17.2   17.1    75   12.7  19.0   WSW   1.58  25.0    SW   13.8   17.2   13.7  1006.8  0.00   0.0   0.004   0.000   25.8    48   13.9   25.7   8.88 1.1554    117    1    100.0    5 
28/07/15  14:15   17.2   17.3   17.2    74   12.5  21.0   WSW   1.75  27.0   WSW   13.5   17.1   13.4  1006.8  0.00   0.0   0.004   0.000   25.8    48   14.0   25.8   8.88 1.1551    117    1    100.0    5 
28/07/15  14:20   16.8   17.2   16.8    76   12.5  24.0   WSW   2.00  30.0   WSW   12.7   16.7   12.7  1006.8  0.00   0.0   0.005   0.000   25.8    47   13.7   25.7   8.68 1.1555    117    1    100.0    5 
28/07/15  14:25   16.7   16.7   16.6    76   12.4  23.0   WSW   1.92  30.0   WSW   12.7   16.6   12.7  1006.8  0.00   0.0   0.006   0.000   25.8    47   13.7   25.7   8.68 1.1556    117    1    100.0    5 
28/07/15  14:30   16.8   16.8   16.7    78   13.0  22.0   WSW   1.83  28.0    SW   13.0   16.9   13.1  1006.8  0.00   0.0   0.005   0.000   25.9    47   13.7   25.8   8.68 1.1553    117    1    100.0    5 
28/07/15  14:35   17.1   17.1   16.9    77   13.0  23.0   WSW   1.92  27.0    SW   13.2   17.1   13.2  1006.8  0.00   0.0   0.004   0.000   25.9    47   13.7   25.8   8.68 1.1552    116    1    100.0    5 
28/07/15  14:40   16.8   17.1   16.8    76   12.6  22.0   WSW   1.83  28.0   WSW   13.0   16.8   12.9  1006.8  0.00   0.0   0.005   0.000   25.9    47   13.8   25.9   8.68 1.1550    116    1    100.0    5 
28/07/15  14:45   17.1   17.1   16.8    76   12.8  18.0   WSW   1.50  26.0   WSW   13.8   17.1   13.8  1006.8  0.00   0.0   0.004   0.000   25.9    48   14.1   25.9   8.88 1.1545    116    1    100.0    5 
28/07/15  14:50   17.1   17.1   17.0    76   12.8  21.0   WSW   1.75  27.0   WSW   13.4   17.1   13.4  1006.8  0.00   0.0   0.004   0.000   25.9    48   14.1   25.9   8.88 1.1545    117    1    100.0    5 
28/07/15  14:55   16.8   17.1   16.8    77   12.7  23.0   WSW   1.92  29.0   WSW   12.8   16.8   12.8  1006.8  0.00   0.0   0.005   0.000   26.0    48   14.1   26.0   8.87 1.1543    117    1    100.0    5 
28/07/15  15:00   16.6   16.8   16.6    77   12.6  24.0    SW   2.00  28.0    SW   12.6   16.6   12.5  1006.7  0.00   0.0   0.006   0.000   26.0    47   13.8   25.9   8.67 1.1546    115    1    100.0    5 
28/07/15  15:05   16.6   16.7   16.6    75   12.1  24.0   WSW   2.00  31.0   WSW   12.5   16.4   12.4  1006.7  0.00   0.0   0.006   0.000   26.0    47   13.8   25.9   8.67 1.1546    116    1    100.0    5 
28/07/15  15:10   16.8   16.8   16.6    76   12.5  24.0   WSW   2.00  29.0    SW   12.7   16.7   12.7  1006.7  0.00   0.0   0.005   0.000   26.1    47   13.9   26.0   8.67 1.1543    116    1    100.0    5 
28/07/15  15:15   17.1   17.1   16.8    77   13.0  23.0    SW   1.92  29.0   WSW   13.2   17.1   13.2  1006.8  0.00   0.0   0.004   0.000   26.1    47   13.9   26.0   8.67 1.1544    117    1    100.0    5 
28/07/15  15:20   17.3   17.3   17.1    78   13.4  22.0   WSW   1.83  27.0   WSW   13.5   17.4   13.6  1006.8  0.00   0.0   0.004   0.000   26.1    48   14.2   26.1   8.87 1.1537    117    1    100.0    5 
28/07/15  15:25   16.8   17.3   16.7    77   12.7  25.0   WSW   2.08  29.0   WSW   12.6   16.8   12.6  1006.8  0.00   0.0   0.005   0.000   26.1    47   13.9   26.1   8.67 1.1541    116    1    100.0    5 
28/07/15  15:30   16.9   16.9   16.8    78   13.1  24.0   WSW   2.00  28.0   WSW   12.9   17.0   13.0  1006.9  0.00   0.0   0.005   0.000   26.2    47   14.0   26.1   8.67 1.1539    117    1    100.0    5 
28/07/15  15:35   16.7   16.9   16.7    79   13.1  23.0    SW   1.92  28.0   WSW   12.8   16.8   12.8  1006.8  0.00   0.0   0.006   0.000   26.2    47   14.0   26.1   8.67 1.1539    117    1    100.0    5 
28/07/15  15:40   16.7   16.9   16.7    77   12.7  23.0    SW   1.92  28.0    SW   12.8   16.7   12.8  1006.8  0.00   0.0   0.006   0.000   26.2    47   14.0   26.2   8.67 1.1536    116    1    100.0    5 
28/07/15  15:45   16.8   17.0   16.8    77   12.8  21.0   WSW   1.75  27.0   WSW   13.1   16.8   13.1  1006.8  0.00   0.0   0.005   0.000   26.2    47   14.0   26.2   8.67 1.1536    117    1    100.0    5 
28/07/15  15:50   16.8   16.9   16.7    80   13.3  20.0    SW   1.67  25.0    SW   13.2   16.9   13.3  1006.9  0.00   0.0   0.005   0.000   26.2    47   14.0   26.2   8.67 1.1537    117    1    100.0    5 
28/07/15  15:55   16.7   16.8   16.6    78   12.8  22.0    SW   1.83  26.0    SW   12.8   16.7   12.8  1006.8  0.00   0.0   0.006   0.000   26.2    47   14.0   26.2   8.67 1.1536    117    1    100.0    5 
28/07/15  16:00   16.6   16.7   16.6    79   13.0  23.0   WSW   1.92  28.0   WSW   12.7   16.7   12.7  1006.8  0.00   0.0   0.006   0.000   26.2    47   14.0   26.2   8.67 1.1536    116    1    100.0    5 
28/07/15  16:05   16.8   16.8   16.6    77   12.7  24.0    SW   2.00  28.0    SW   12.7   16.8   12.7  1006.9  0.00   0.0   0.005   0.000   26.2    47   14.0   26.2   8.67 1.1537    116    1    100.0    5 
28/07/15  16:10   16.7   16.8   16.7    79   13.0  23.0    SW   1.92  28.0   WSW   12.7   16.7   12.8  1006.7  0.00   0.0   0.006   0.000   26.2    47   14.0   26.2   8.67 1.1535    117    1    100.0    5 
28/07/15  16:15   17.0   17.0   16.6    79   13.3  23.0   WSW   1.92  29.0   WSW   13.1   17.1   13.2  1006.7  0.00   0.0   0.005   0.000   26.3    47   14.1   26.2   8.66 1.1532    116    1    100.0    5 
28/07/15  16:20   16.9   17.1   16.9    79   13.2  23.0    SW   1.92  29.0   WSW   12.9   17.0   13.1  1006.8  0.00   0.0   0.005   0.000   26.2    47   14.0   26.2   8.67 1.1536    117    1    100.0    5 
28/07/15  16:25   16.7   16.9   16.7    78   12.9  25.0   WSW   2.08  32.0   WSW   12.6   16.7   12.6  1006.8  0.00   0.0   0.006   0.000   26.3    47   14.1   26.2   8.66 1.1533    117    1    100.0    5 
28/07/15  16:30   16.8   16.8   16.6    80   13.4  24.0    SW   2.00  32.0   WSW   12.8   16.9   12.9  1006.8  0.00   0.0   0.005   0.000   26.3    47   14.1   26.2   8.66 1.1533    117    1    100.0    5 
28/07/15  16:35   16.8   16.9   16.8    80   13.4  25.0    SW   2.08  31.0   WSW   12.7   16.9   12.8  1006.8  0.00   0.0   0.005   0.000   26.3    47   14.1   26.2   8.66 1.1533    117    1    100.0    5 
28/07/15  16:40   16.6   16.8   16.6    79   13.0  26.0   WSW   2.17  32.0   WSW   12.4   16.7   12.4  1006.8  0.00   0.0   0.006   0.000   26.3    47   14.1   26.2   8.66 1.1533    117    1    100.0    5 
28/07/15  16:45   16.8   16.8   16.6    79   13.2  25.0    SW   2.08  33.0   WSW   12.7   16.9   12.8  1006.9  0.00   0.0   0.005   0.000   26.3    47   14.1   26.2   8.66 1.1534    115    1    100.0    5 
28/07/15  16:50   16.9   16.9   16.8    79   13.2  26.0    SW   2.17  33.0    SW   12.7   17.0   12.8  1006.9  0.00   0.0   0.005   0.000   26.3    47   14.1   26.3   8.66 1.1532    117    1    100.0    5 
28/07/15  16:55   16.9   16.9   16.9    80   13.5  25.0    SW   2.08  31.0    SW   12.8   17.1   13.0  1006.9  0.00   0.0   0.005   0.000   26.3    47   14.1   26.3   8.66 1.1532    117    1    100.0    5 
28/07/15  17:00   16.8   17.0   16.8    78   12.9  25.0   WSW   2.08  32.0    SW   12.6   16.8   12.7  1006.8  0.00   0.0   0.005   0.000   26.3    47   14.1   26.3   8.66 1.1530    117    1    100.0    5 
28/07/15  17:05   16.5   16.8   16.4    80   13.0  25.0    SW   2.08  31.0    SW   12.3   16.6   12.4  1006.8  0.00   0.0   0.006   0.000   26.4    47   14.2   26.3   8.66 1.1527    114    1    100.0    5 
28/07/15  17:10   16.8   16.8   16.5    80   13.3  25.0    SW   2.08  29.0    SW   12.6   16.9   12.7  1006.8  0.00   0.0   0.005   0.000   26.4    48   14.5   26.3   8.86 1.1524    116    1    100.0    5 
28/07/15  17:15   16.7   16.7   16.6    79   13.0  23.0   WSW   1.92  28.0    SW   12.7   16.7   12.8  1006.9  0.00   0.0   0.006   0.000   26.4    48   14.5   26.3   8.86 1.1524    116    1    100.0    5 
28/07/15  17:20   16.7   16.7   16.6    79   13.1  25.0   WSW   2.08  30.0   WSW   12.6   16.8   12.6  1006.9  0.00   0.0   0.006   0.000   26.4    48   14.5   26.3   8.86 1.1524    117    1    100.0    5 
28/07/15  17:25   16.8   16.8   16.7    79   13.2  25.0   WSW   2.08  29.0   WSW   12.7   16.9   12.8  1006.9  0.00   0.0   0.005   0.000   26.4    48   14.5   26.3   8.86 1.1525    116    1    100.0    5 
28/07/15  17:30   16.9   16.9   16.8    77   12.9  25.0   WSW   2.08  30.0   WSW   12.8   16.9   12.8  1007.0  0.00   0.0   0.005   0.000   26.4    48   14.5   26.4   8.86 1.1523    117    1    100.0    5 
28/07/15  17:35   16.8   17.0   16.8    78   12.9  24.0   WSW   2.00  29.0   WSW   12.7   16.8   12.8  1007.0  0.00   0.0   0.005   0.000   26.5    48   14.6   26.4   8.86 1.1520    116    1    100.0    5 
28/07/15  17:40   16.7   16.8   16.6    80   13.3  26.0    SW   2.17  31.0   WSW   12.5   16.8   12.6  1006.9  0.00   0.0   0.006   0.000   26.5    48   14.6   26.4   8.86 1.1519    118    1    100.0    5 
28/07/15  17:45   17.0   17.0   16.7    79   13.3  24.0   WSW   2.00  31.0   WSW   13.0   17.1   13.1  1007.0  0.00   0.0   0.005   0.000   26.5    48   14.6   26.4   8.86 1.1520    116    1    100.0    5 
28/07/15  17:50   16.6   17.0   16.6    78   12.8  26.0   WSW   2.17  32.0   WSW   12.4   16.6   12.4  1007.0  0.00   0.0   0.006   0.000   26.5    48   14.6   26.4   8.86 1.1520    116    1    100.0    5 
28/07/15  17:55   16.7   16.7   16.6    79   13.0  27.0   WSW   2.25  33.0   WSW   12.3   16.7   12.4  1007.0  0.00   0.0   0.006   0.000   26.6    48   14.6   26.5   8.85 1.1517    117    1    100.0    5 
28/07/15  18:00   16.7   16.7   16.6    78   12.9  26.0   WSW   2.17  33.0   WSW   12.5   16.7   12.5  1007.0  0.00   0.0   0.006   0.000   26.6    48   14.7   26.6   8.85 1.1515    117    1    100.0    5 
28/07/15  18:05   16.8   16.8   16.7    78   12.9  25.0   WSW   2.08  31.0   WSW   12.6   16.8   12.7  1007.0  0.00   0.0   0.005   0.000   26.6    48   14.7   26.6   8.85 1.1515    116    1    100.0    5 
28/07/15  18:10   16.8   16.8   16.8    78   12.9  25.0   WSW   2.08  31.0   WSW   12.6   16.8   12.7  1007.0  0.00   0.0   0.005   0.000   26.6    48   14.7   26.6   8.85 1.1515    117    1    100.0    5 
28/07/15  18:15   16.8   16.8   16.8    77   12.7  25.0   WSW   2.08  30.0   WSW   12.6   16.8   12.6  1007.0  0.00   0.0   0.005   0.000   26.7    48   14.7   26.6   8.85 1.1513    116    1    100.0    5 
28/07/15  18:20   16.8   16.9   16.8    79   13.2  23.0   WSW   1.92  28.0    SW   12.9   16.9   12.9  1007.1  0.00   0.0   0.005   0.000   26.7    47   14.4   26.6   8.65 1.1517    117    1    100.0    5 
28/07/15  18:25   16.5   16.8   16.5    80   13.0  24.0   WSW   2.00  28.0   WSW   12.4   16.6   12.5  1007.0  0.00   0.0   0.006   0.000   26.7    47   14.4   26.6   8.65 1.1517    115    1    100.0    5 
28/07/15  18:30   16.5   16.5   16.4    79   12.8  25.0   WSW   2.08  31.0   WSW   12.3   16.6   12.4  1007.0  0.00   0.0   0.006   0.000   26.7    47   14.5   26.6   8.65 1.1514    117    1    100.0    5 
28/07/15  18:35   16.5   16.5   16.4    79   12.8  23.0   WSW   1.92  30.0   WSW   12.5   16.6   12.6  1007.0  0.00   0.0   0.006   0.000   26.7    47   14.5   26.6   8.65 1.1514    117    1    100.0    5 
28/07/15  18:40   16.4   16.5   16.4    80   12.9  22.0   WSW   1.83  29.0   WSW   12.5   16.4   12.6  1007.1  0.00   0.0   0.007   0.000   26.7    47   14.5   26.6   8.65 1.1515    116    1    100.0    5 
28/07/15  18:45   16.3   16.4   16.3    78   12.4  21.0   WSW   1.75  29.0   WSW   12.5   16.2   12.4  1007.1  0.00   0.0   0.007   0.000   26.7    47   14.5   26.6   8.65 1.1514    117    1    100.0    5 
28/07/15  18:50   16.4   16.4   16.3    79   12.8  22.0   WSW   1.83  28.0   WSW   12.6   16.4   12.6  1007.1  0.00   0.0   0.007   0.000   26.8    47   14.5   26.7   8.65 1.1512    117    1    100.0    5 
28/07/15  18:55   16.4   16.4   16.4    78   12.6  21.0   WSW   1.75  31.0   WSW   12.7   16.4   12.7  1007.2  0.00   0.0   0.007   0.000   26.8    47   14.5   26.7   8.65 1.1513    117    1    100.0    5 
28/07/15  19:00   16.6   16.6   16.4    78   12.7  20.0   WSW   1.67  26.0   WSW   12.9   16.6   12.9  1007.2  0.00   0.0   0.006   0.000   26.8    47   14.5   26.7   8.65 1.1513    117    1    100.0    5 
28/07/15  19:05   16.7   16.7   16.6    77   12.7  19.0   WSW   1.58  26.0   WSW   13.2   16.7   13.2  1007.1  0.00   0.0   0.006   0.000   26.8    47   14.5   26.7   8.65 1.1512    116    1    100.0    5 
28/07/15  19:10   16.7   16.7   16.7    77   12.6  20.0   WSW   1.67  26.0   WSW   13.1   16.7   13.1  1007.2  0.00   0.0   0.006   0.000   26.8    47   14.5   26.7   8.65 1.1513    117    1    100.0    5 
28/07/15  19:15   16.4   16.7   16.4    79   12.8  22.0   WSW   1.83  30.0   WSW   12.6   16.4   12.6  1007.1  0.00   0.0   0.007   0.000   26.8    47   14.5   26.7   8.65 1.1512    117    1    100.0    5 
28/07/15  19:20   16.3   16.4   16.3    79   12.7  21.0   WSW   1.75  28.0   WSW   12.6   16.3   12.6  1007.2  0.00   0.0   0.007   0.000   26.8    47   14.5   26.7   8.65 1.1513    116    1    100.0    5 
28/07/15  19:25   16.3   16.3   16.3    80   12.8  20.0   WSW   1.67  27.0   WSW   12.6   16.3   12.7  1007.2  0.00   0.0   0.007   0.000   26.7    47   14.5   26.6   8.65 1.1515    117    1    100.0    5 
28/07/15  19:30   16.3   16.3   16.2    80   12.9  19.0   WSW   1.58  26.0   WSW   12.8   16.4   12.8  1007.1  0.00   0.0   0.007   0.000   26.7    47   14.5   26.6   8.65 1.1515    117    1    100.0    5 
28/07/15  19:35   16.2   16.3   16.2    79   12.6  22.0   WSW   1.83  28.0    SW   12.3   16.2   12.3  1007.2  0.00   0.0   0.007   0.000   26.7    47   14.5   26.6   8.65 1.1515    116    1    100.0    5 
28/07/15  19:40   16.3   16.3   16.2    80   12.8  19.0   WSW   1.58  28.0   WSW   12.7   16.3   12.8  1007.2  0.00   0.0   0.007   0.000   26.7    47   14.5   26.6   8.65 1.1515    115    1    100.0    5 
28/07/15  19:45   16.3   16.3   16.3    79   12.6  20.0   WSW   1.67  27.0   WSW   12.6   16.3   12.6  1007.2  0.00   0.0   0.007   0.000   26.7    47   14.5   26.6   8.65 1.1515    118    1    100.0    5 
28/07/15  19:50   16.3   16.3   16.2    80   12.8  17.0   WSW   1.42  25.0   WSW   13.0   16.3   13.1  1007.2  0.00   0.0   0.007   0.000   26.7    47   14.5   26.6   8.65 1.1516    116    1    100.0    5 
28/07/15  19:55   16.3   16.3   16.2    81   13.1  20.0   WSW   1.67  26.0   WSW   12.7   16.4   12.7  1007.2  0.00   0.0   0.007   0.000   26.7    47   14.5   26.6   8.65 1.1515    115    1    100.0    5 
28/07/15  20:00   16.3   16.4   16.3    80   12.9  18.0   WSW   1.50  26.0   WSW   12.9   16.4   12.9  1007.3  0.00   0.0   0.007   0.000   26.7    47   14.4   26.6   8.65 1.1519    117    1    100.0    5 
28/07/15  20:05   16.4   16.4   16.3    82   13.4  17.0   WSW   1.42  25.0   WSW   13.2   16.6   13.3  1007.3  0.00   0.0   0.007   0.000   26.7    47   14.4   26.6   8.65 1.1519    116    1    100.0    5 
28/07/15  20:10   16.4   16.4   16.3    81   13.1  16.0   WSW   1.33  23.0   WSW   13.3   16.4   13.4  1007.3  0.00   0.0   0.007   0.000   26.7    47   14.4   26.6   8.65 1.1519    117    1    100.0    5 
28/07/15  20:15   16.4   16.4   16.4    81   13.1  18.0   WSW   1.50  25.0    SW   13.0   16.4   13.1  1007.3  0.00   0.0   0.007   0.000   26.7    47   14.4   26.6   8.65 1.1519    114    1    100.0    5 
28/07/15  20:20   16.2   16.4   16.2    80   12.8  17.0   WSW   1.42  25.0   WSW   12.9   16.2   12.9  1007.4  0.00   0.0   0.007   0.000   26.6    47   14.4   26.5   8.65 1.1523    117    1    100.0    5 
28/07/15  20:25   16.2   16.2   16.2    80   12.7  16.0   WSW   1.33  23.0   WSW   13.1   16.2   13.1  1007.3  0.00   0.0   0.008   0.000   26.6    47   14.4   26.5   8.65 1.1523    117    1    100.0    5 
28/07/15  20:30   16.1   16.2   16.1    80   12.7  17.0   WSW   1.42  24.0   WSW   12.8   16.1   12.8  1007.4  0.00   0.0   0.008   0.000   26.6    47   14.4   26.5   8.65 1.1523    117    1    100.0    5 
28/07/15  20:35   16.1   16.2   16.1    80   12.6  16.0   WSW   1.33  22.0   WSW   12.9   16.1   12.9  1007.4  0.00   0.0   0.008   0.000   26.6    47   14.4   26.5   8.65 1.1523    117    1    100.0    5 
28/07/15  20:40   16.1   16.1   16.1    80   12.6  15.0   WSW   1.25  22.0   WSW   13.1   16.1   13.1  1007.4  0.00   0.0   0.008   0.000   26.6    47   14.4   26.5   8.65 1.1524    117    1    100.0    5 
28/07/15  20:45   16.1   16.1   16.1    81   12.8  14.0   WSW   1.17  20.0   WSW   13.3   16.1   13.3  1007.4  0.00   0.0   0.008   0.000   26.6    47   14.4   26.5   8.65 1.1524    117    1    100.0    5 
28/07/15  20:50   16.1   16.1   16.0    81   12.8  14.0   WSW   1.17  20.0   WSW   13.3   16.1   13.3  1007.6  0.00   0.0   0.008   0.000   26.6    47   14.3   26.4   8.65 1.1528    118    1    100.0    5 
28/07/15  20:55   16.0   16.0   15.9    81   12.7  13.0     W   1.08  19.0    SW   13.4   16.0   13.4  1007.6  0.00   0.0   0.008   0.000   26.6    47   14.3   26.4   8.65 1.1528    116    1    100.0    5 
28/07/15  21:00   15.8   16.0   15.8    81   12.6  13.0   WSW   1.08  17.0   WSW   13.3   15.8   13.3  1007.6  0.00   0.0   0.009   0.000   26.6    47   14.3   26.4   8.65 1.1529    117    1    100.0    5 
28/07/15  21:05   15.6   15.8   15.6    79   12.0   9.0     W   0.75  15.0   WSW   14.3   15.5   14.2  1007.7  0.00   0.0   0.009   0.000   26.5    47   14.3   26.4   8.66 1.1532    117    1    100.0    5 
28/07/15  21:10   15.5   15.6   15.5    79   11.9   9.0     W   0.75  14.0     W   14.2   15.4   14.1  1007.8  0.00   0.0   0.010   0.000   26.5    47   14.3   26.4   8.66 1.1533    117    1    100.0    5 
28/07/15  21:15   15.4   15.5   15.4    78   11.6   8.0     W   0.67  12.0   WNW   14.6   15.3   14.5  1007.8  0.00   0.0   0.010   0.000   26.5    47   14.3   26.4   8.66 1.1534    117    1    100.0    5 
28/07/15  21:20   15.4   15.4   15.4    78   11.6   7.0     W   0.58  11.0     W   14.9   15.3   14.8  1007.8  0.00   0.0   0.010   0.000   26.5    47   14.3   26.4   8.66 1.1534    117    1    100.0    5 
28/07/15  21:25   15.3   15.4   15.3    77   11.3   6.0     W   0.50   9.0     W   15.0   15.1   14.8  1007.9  0.00   0.0   0.011   0.000   26.4    47   14.2   26.3   8.66 1.1538    116    1    100.0    5 
28/07/15  21:30   15.2   15.3   15.2    77   11.2   6.0     W   0.50  11.0     W   14.9   14.9   14.7  1008.0  0.00   0.0   0.011   0.000   26.4    47   14.2   26.3   8.66 1.1538    117    1    100.0    5 
28/07/15  21:35   15.1   15.2   15.1    77   11.1   5.0     W   0.42  10.0   WSW   14.9   14.8   14.7  1008.0  0.00   0.0   0.011   0.000   26.4    47   14.2   26.3   8.66 1.1539    117    1    100.0    5 
28/07/15  21:40   15.0   15.1   15.0    77   11.0   5.0     W   0.42   7.0     W   14.9   14.8   14.7  1008.1  0.00   0.0   0.012   0.000   26.4    47   14.2   26.3   8.66 1.1540    116    1    100.0    5 
28/07/15  21:45   14.9   15.0   14.9    76   10.7   4.0     W   0.33   7.0     W   14.9   14.7   14.7  1008.2  0.00   0.0   0.012   0.000   26.4    47   14.2   26.3   8.66 1.1544    117    1    100.0    5 
28/07/15  21:50   14.8   14.9   14.8    76   10.6   3.0   WNW   0.25   7.0     W   14.8   14.6   14.6  1008.2  0.00   0.0   0.012   0.000   26.4    47   14.2   26.3   8.66 1.1544    116    1    100.0    5 
28/07/15  21:55   14.7   14.8   14.7    75   10.3   4.0   WNW   0.33   7.0   WNW   14.7   14.4   14.4  1008.3  0.00   0.0   0.013   0.000   26.3    47   14.1   26.3   8.66 1.1547    116    1    100.0    5 
28/07/15  22:00   14.6   14.7   14.6    75   10.2   4.0   WNW   0.33   6.0     W   14.6   14.3   14.3  1008.3  0.00   0.0   0.013   0.000   26.3    47   14.1   26.3   8.66 1.1547    116    1    100.0    5 
28/07/15  22:05   14.4   14.6   14.4    74    9.9   4.0   WNW   0.33   6.0   WNW   14.4   14.1   14.1  1008.3  0.00   0.0   0.014   0.000   26.3    47   14.1   26.3   8.66 1.1547    117    1    100.0    5 
28/07/15  22:10   14.3   14.4   14.3    73    9.6   4.0   WNW   0.33   8.0   WNW   14.3   14.0   14.0  1008.3  0.00   0.0   0.014   0.000   26.3    47   14.1   26.3   8.66 1.1547    117    1    100.0    5 
28/07/15  22:15   14.2   14.3   14.2    73    9.4   4.0   WNW   0.33   6.0   WNW   14.2   13.9   13.9  1008.3  0.00   0.0   0.014   0.000   26.3    47   14.1   26.3   8.66 1.1547    116    1    100.0    5 
28/07/15  22:20   14.1   14.2   14.1    73    9.3   3.0   WNW   0.25   5.0    NW   14.1   13.8   13.8  1008.3  0.00   0.0   0.015   0.000   26.3    47   14.1   26.2   8.66 1.1551    116    1    100.0    5 
28/07/15  22:25   14.0   14.1   14.0    73    9.2   3.0   WNW   0.25   5.0   WNW   14.0   13.7   13.7  1008.4  0.00   0.0   0.015   0.000   26.3    47   14.1   26.2   8.66 1.1551    117    1    100.0    5 
28/07/15  22:30   13.9   14.0   13.9    73    9.1   3.0   WNW   0.25   5.0     W   13.9   13.6   13.6  1008.4  0.00   0.0   0.015   0.000   26.2    47   14.0   26.2   8.67 1.1554    116    1    100.0    5 
28/07/15  22:35   13.8   13.9   13.8    73    9.0   3.0     W   0.25   6.0     W   13.8   13.4   13.4  1008.4  0.00   0.0   0.016   0.000   26.2    47   14.0   26.2   8.67 1.1555    116    1    100.0    5 
28/07/15  22:40   13.7   13.8   13.7    73    9.0   3.0   WNW   0.25   7.0     W   13.7   13.4   13.4  1008.5  0.00   0.0   0.016   0.000   26.2    47   14.0   26.2   8.67 1.1555    117    1    100.0    5 
28/07/15  22:45   13.6   13.7   13.6    73    8.9   4.0     W   0.33   7.0   WNW   13.6   13.2   13.2  1008.5  0.00   0.0   0.016   0.000   26.2    47   14.0   26.2   8.67 1.1556    117    1    100.0    5 
28/07/15  22:50   13.5   13.6   13.5    73    8.8   5.0     W   0.42   9.0   WNW   13.1   13.1   12.7  1008.5  0.00   0.0   0.017   0.000   26.2    47   14.0   26.1   8.67 1.1559    115    1    100.0    5 
28/07/15  22:55   13.4   13.5   13.4    73    8.7   6.0   WNW   0.50   9.0     W   12.8   13.1   12.4  1008.6  0.00   0.0   0.017   0.000   26.2    47   14.0   26.1   8.67 1.1559    117    1    100.0    5 
28/07/15  23:00   13.4   13.4   13.4    72    8.4   5.0   WNW   0.42   9.0     W   13.0   13.0   12.6  1008.6  0.00   0.0   0.017   0.000   26.1    47   13.9   26.1   8.67 1.1563    116    1    100.0    5 
28/07/15  23:05   13.3   13.4   13.3    72    8.4   6.0   WNW   0.50  10.0   WNW   12.7   12.9   12.3  1008.6  0.00   0.0   0.017   0.000   26.1    47   13.9   26.1   8.67 1.1562    117    1    100.0    5 
28/07/15  23:10   13.3   13.3   13.3    73    8.5   6.0   WNW   0.50  10.0   WNW   12.6   12.9   12.2  1008.7  0.00   0.0   0.018   0.000   26.1    47   13.9   26.1   8.67 1.1564    117    1    100.0    5 
28/07/15  23:15   13.2   13.2   13.2    73    8.4   6.0   WNW   0.50   9.0     W   12.4   12.8   12.1  1008.7  0.00   0.0   0.018   0.000   26.1    47   13.9   26.0   8.67 1.1566    116    1    100.0    5 
28/07/15  23:20   13.1   13.2   13.1    73    8.4   5.0   WNW   0.42   8.0   WSW   12.7   12.7   12.3  1008.7  0.00   0.0   0.018   0.000   26.1    47   13.9   26.0   8.67 1.1566    116    1    100.0    5 
28/07/15  23:25   13.0   13.1   13.0    73    8.3   6.0   WNW   0.50   9.0   WNW   12.3   12.7   11.9  1008.7  0.00   0.0   0.019   0.000   26.1    47   13.9   26.0   8.67 1.1567    117    1    100.0    5 
28/07/15  23:30   12.9   13.0   12.9    73    8.2   6.0   WNW   0.50   9.0    NW   12.2   12.6   11.9  1008.8  0.00   0.0   0.019   0.000   26.0    47   13.8   25.9   8.67 1.1570    117    1    100.0    5 
28/07/15  23:35   12.9   12.9   12.9    73    8.2   5.0   WNW   0.42   9.0     W   12.4   12.6   12.1  1008.8  0.00   0.0   0.019   0.000   26.0    47   13.8   25.9   8.67 1.1570    117    1    100.0    5 
28/07/15  23:40   12.8   12.9   12.8    74    8.3   4.0   WNW   0.33   7.0    NW   12.6   12.5   12.3  1008.8  0.00   0.0   0.019   0.000   25.9    47   13.8   25.9   8.68 1.1573    117    1    100.0    5 
28/07/15  23:45   12.7   12.8   12.7    74    8.2   4.0   WNW   0.33   7.0   WNW   12.5   12.4   12.2  1008.8  0.00   0.0   0.019   0.000   25.9    47   13.8   25.9   8.68 1.1573    117    1    100.0    5 
28/07/15  23:50   12.7   12.7   12.6    74    8.1   4.0   WNW   0.33   7.0    NW   12.4   12.3   12.1  1008.8  0.00   0.0   0.020   0.000   25.9    47   13.8   25.9   8.68 1.1573    117    1    100.0    5 
28/07/15  23:55   12.5   12.6   12.5    75    8.2   5.0   WNW   0.42   9.0   WNW   11.9   12.2   11.7  1008.9  0.00   0.0   0.020   0.000   25.9    47   13.8   25.9   8.68 1.1574    117    1    100.0    5 
29/07/15  00:00   12.4   12.5   12.4    75    8.1   5.0   WNW   0.42   7.0   WNW   11.9   12.2   11.6  1008.8  0.00   0.0   0.020   0.000   25.9    47   13.7   25.8   8.68 1.1576    118    1    100.0    5 
29/07/15   0:05   12.3   12.4   12.3    76    8.2   5.0   WNW   0.42   6.0   WNW   11.7   12.1   11.4  1008.9  0.00   0.0   0.021   0.000   25.9    47   13.7   25.8   8.68 1.1576    115    1    100.0    5 
29/07/15   0:10   12.3   12.3   12.3    76    8.2   5.0   WNW   0.42   8.0     W   11.7   12.0   11.4  1008.8  0.00   0.0   0.021   0.000   25.9    47   13.7   25.8   8.68 1.1576    117    1    100.0    5 
29/07/15   0:15   12.3   12.3   12.3    76    8.2   5.0     W   0.42   7.0     W   11.7   12.0   11.4  1008.9  0.00   0.0   0.021   0.000   25.8    47   13.7   25.7   8.68 1.1579    116    1    100.0    5 
29/07/15   0:20   12.3   12.3   12.3    76    8.2   4.0     W   0.33   7.0   WNW   12.0   12.0   11.7  1008.9  0.00   0.0   0.021   0.000   25.8    47   13.7   25.7   8.68 1.1580    115    1    100.0    5 
29/07/15   0:25   12.2   12.3   12.2    76    8.1   4.0     W   0.33   7.0   WNW   11.9   11.9   11.7  1008.9  0.00   0.0   0.021   0.000   25.8    47   13.6   25.7   8.68 1.1583    117    1    100.0    5 
29/07/15   0:30   12.2   12.2   12.2    76    8.1   3.0     W   0.25   5.0     W   12.2   11.9   11.9  1008.9  0.00   0.0   0.021   0.000   25.8    47   13.6   25.7   8.68 1.1583    116    1    100.0    5 
29/07/15   0:35   12.1   12.2   12.1    77    8.2   3.0   WNW   0.25   5.0   WNW   12.1   11.9   11.9  1008.9  0.00   0.0   0.022   0.000   25.8    47   13.6   25.7   8.68 1.1582    117    1    100.0    5 
29/07/15   0:40   12.1   12.1   12.1    77    8.1   3.0   WNW   0.25   5.0   WNW   12.1   11.8   11.8  1008.9  0.00   0.0   0.022   0.000   25.8    47   13.6   25.7   8.68 1.1583    115    1    100.0    5 
29/07/15   0:45   11.9   12.0   11.9    77    8.0   3.0   WNW   0.25   5.0   WNW   11.9   11.7   11.7  1008.9  0.00   0.0   0.022   0.000   25.7    47   13.6   25.6   8.68 1.1585    116    1    100.0    5 
29/07/15   0:50   11.9   11.9   11.9    78    8.2   4.0     W   0.33   6.0     W   11.6   11.7   11.3  1008.9  0.00   0.0   0.022   0.000   25.7    47   13.6   25.6   8.68 1.1585    116    1    100.0    5 
29/07/15   0:55   11.9   11.9   11.8    78    8.2   4.0   WNW   0.33   7.0     W   11.6   11.7   11.3  1008.8  0.00   0.0   0.022   0.000   25.7    47   13.6   25.6   8.68 1.1584    116    1    100.0    5 
29/07/15   1:00   11.8   11.8   11.8    78    8.1   3.0   WNW   0.25   6.0   WNW   11.8   11.6   11.6  1008.9  0.00   0.0   0.023   0.000   25.7    47   13.5   25.6   8.69 1.1587    116    1    100.0    5 
29/07/15   1:05   11.8   11.8   11.8    78    8.1   4.0    NW   0.33   6.0    NW   11.4   11.6   11.2  1008.9  0.00   0.0   0.023   0.000   25.7    47   13.5   25.6   8.69 1.1587    117    1    100.0    5 
29/07/15   1:10   11.7   11.8   11.7    78    8.0   3.0   NNW   0.25   5.0   NNW   11.7   11.5   11.5  1008.8  0.00   0.0   0.023   0.000   25.7    47   13.5   25.6   8.69 1.1586    117    1    100.0    5 
29/07/15   1:15   11.6   11.7   11.6    78    7.9   3.0    NW   0.25   5.0    NW   11.6   11.4   11.4  1008.8  0.00   0.0   0.023   0.000   25.6    47   13.5   25.5   8.69 1.1589    115    1    100.0    5 
29/07/15   1:20   11.6   11.6   11.6    79    8.0   3.0    NW   0.25   4.0    NW   11.6   11.4   11.4  1008.8  0.00   0.0   0.024   0.000   25.6    47   13.5   25.5   8.69 1.1589    116    1    100.0    5 
29/07/15   1:25   11.5   11.6   11.5    79    8.0   3.0    NW   0.25   4.0    NW   11.5   11.3   11.3  1008.8  0.00   0.0   0.024   0.000   25.6    47   13.5   25.5   8.69 1.1589    118    1    100.0    5 
29/07/15   1:30   11.4   11.5   11.4    79    7.9   4.0   NNW   0.33   5.0   NNW   11.0   11.2   10.8  1008.8  0.00   0.0   0.024   0.000   25.6    47   13.4   25.4   8.69 1.1592    115    1    100.0    5 
29/07/15   1:35   11.3   11.4   11.3    79    7.8   3.0   NNW   0.25   5.0   NNW   11.3   11.2   11.1  1008.7  0.00   0.0   0.024   0.000   25.6    47   13.4   25.4   8.69 1.1591    117    1    100.0    5 
29/07/15   1:40   11.3   11.3   11.3    80    8.0   3.0    NW   0.25   6.0    NW   11.2   11.2   11.1  1008.8  0.00   0.0   0.024   0.000   25.6    47   13.4   25.4   8.69 1.1592    117    1    100.0    5 
29/07/15   1:45   11.3   11.3   11.3    80    8.0   4.0    NW   0.33   7.0   WNW   10.8   11.2   10.7  1008.7  0.00   0.0   0.024   0.000   25.5    47   13.4   25.3   8.69 1.1594    117    1    100.0    5 
29/07/15   1:50   11.3   11.3   11.3    80    8.0   4.0   WNW   0.33   7.0    NW   10.9   11.2   10.8  1008.7  0.00   0.0   0.024   0.000   25.5    47   13.4   25.3   8.69 1.1594    117    1    100.0    5 
29/07/15   1:55   11.4   11.4   11.3    81    8.2   5.0   WNW   0.42   9.0     W   10.7   11.3   10.6  1008.7  0.00   0.0   0.024   0.000   25.4    47   13.3   25.3   8.69 1.1596    116    1    100.0    5 
29/07/15   2:00   11.4   11.4   11.4    81    8.3   4.0   WNW   0.33   9.0   WNW   11.1   11.3   10.9  1008.7  0.00   0.0   0.024   0.000   25.4    47   13.3   25.3   8.69 1.1596    117    1    100.0    5 
29/07/15   2:05   11.5   11.5   11.4    81    8.4   5.0     W   0.42   9.0     W   10.8   11.4   10.7  1008.7  0.00   0.0   0.024   0.000   25.4    47   13.3   25.3   8.69 1.1597    116    1    100.0    5 
29/07/15   2:10   11.6   11.6   11.5    81    8.5   5.0   WNW   0.42   9.0     W   10.9   11.5   10.8  1008.8  0.00   0.0   0.023   0.000   25.4    47   13.3   25.2   8.70 1.1600    115    1    100.0    5 
29/07/15   2:15   11.6   11.6   11.6    81    8.5   4.0    NW   0.33   7.0    NW   11.2   11.5   11.1  1008.8  0.00   0.0   0.023   0.000   25.4    47   13.3   25.2   8.70 1.1600    117    1    100.0    5 
29/07/15   2:20   11.4   11.6   11.4    81    8.3   4.0    NW   0.33   5.0   NNW   11.1   11.3   10.9  1008.7  0.00   0.0   0.024   0.000   25.4    47   13.3   25.2   8.70 1.1600    117    1    100.0    5 
29/07/15   2:25   11.3   11.4   11.3    81    8.2   4.0    NW   0.33   5.0   NNW   10.9   11.2   10.8  1008.7  0.00   0.0   0.024   0.000   25.4    47   13.3   25.2   8.70 1.1600    117    1    100.0    5 
29/07/15   2:30   11.2   11.3   11.2    81    8.1   4.0    NW   0.33   5.0   NNW   10.8   11.1   10.7  1008.8  0.00   0.0   0.025   0.000   25.3    47   13.2   25.2   8.70 1.1603    118    1    100.0    5 
29/07/15   2:35   11.1   11.2   11.1    81    8.0   4.0    NW   0.33   5.0    NW   10.7   11.0   10.6  1008.8  0.00   0.0   0.025   0.000   25.3    47   13.2   25.1   8.70 1.1606    117    1    100.0    5 
29/07/15   2:40   11.0   11.1   11.0    81    7.9   3.0    NW   0.25   5.0    NW   10.9   10.9   10.9  1008.8  0.00   0.0   0.025   0.000   25.3    47   13.2   25.1   8.70 1.1606    114    1    100.0    5 
29/07/15   2:45   10.9   11.0   10.9    81    7.8   4.0    NW   0.33   5.0    NW   10.4   10.9   10.4  1008.8  0.00   0.0   0.026   0.000   25.3    47   13.2   25.1   8.70 1.1606    115    1    100.0    5 
29/07/15   2:50   10.9   10.9   10.9    82    7.9   3.0    NW   0.25   6.0    NW   10.8   10.8   10.8  1008.7  0.00   0.0   0.026   0.000   25.3    47   13.2   25.1   8.70 1.1605    116    1    100.0    5 
29/07/15   2:55   10.8   10.9   10.8    82    7.9   3.0    NW   0.25   5.0    NW   10.8   10.8   10.7  1008.7  0.00   0.0   0.026   0.000   25.2    47   13.1   25.1   8.70 1.1608    117    1    100.0    5 
29/07/15   3:00   10.8   10.8   10.8    82    7.8   4.0   NNW   0.33   5.0    NW   10.3   10.7   10.2  1008.7  0.00   0.0   0.026   0.000   25.2    47   13.1   25.1   8.70 1.1608    117    1    100.0    5 
29/07/15   3:05   10.7   10.8   10.7    82    7.7   3.0   NNW   0.25   5.0     N   10.6   10.6   10.5  1008.7  0.00   0.0   0.027   0.000   25.2    47   13.1   25.0   8.70 1.1610    115    1    100.0    5 
29/07/15   3:10   10.6   10.7   10.6    82    7.7   3.0    NW   0.25   6.0   WNW   10.5   10.6   10.4  1008.7  0.00   0.0   0.027   0.000   25.2    47   13.1   25.0   8.70 1.1610    117    1    100.0    5 
29/07/15   3:15   10.6   10.7   10.6    83    7.8   3.0    NW   0.25   6.0   WNW   10.5   10.6   10.5  1008.6  0.00   0.0   0.027   0.000   25.1    47   13.0   24.9   8.71 1.1612    115    1    100.0    5 
29/07/15   3:20   10.6   10.7   10.6    83    7.8   4.0    NW   0.33   6.0    NW   10.1   10.6   10.1  1008.7  0.00   0.0   0.027   0.000   25.1    47   13.0   24.9   8.71 1.1613    116    1    100.0    5 
29/07/15   3:25   10.6   10.6   10.6    83    7.8   3.0    NW   0.25   5.0   WNW   10.4   10.6   10.4  1008.7  0.00   0.0   0.027   0.000   25.1    47   13.0   24.9   8.71 1.1613    117    1    100.0    5 
29/07/15   3:30   10.5   10.6   10.5    83    7.7   2.0    NW   0.17   4.0    NW   10.5   10.5   10.5  1008.7  0.00   0.0   0.027   0.000   25.1    47   13.0   24.9   8.71 1.1613    117    1    100.0    5 
29/07/15   3:35   10.4   10.5   10.4    83    7.7   2.0    NW   0.17   3.0    NW   10.4   10.4   10.4  1008.7  0.00   0.0   0.027   0.000   25.1    47   13.0   24.8   8.71 1.1615    116    1    100.0    5 
29/07/15   3:40   10.4   10.4   10.4    83    7.7   2.0   WNW   0.17   4.0   WNW   10.4   10.4   10.4  1008.7  0.00   0.0   0.027   0.000   25.1    47   13.0   24.8   8.71 1.1615    117    1    100.0    5 
29/07/15   3:45   10.4   10.4   10.4    84    7.8   3.0     W   0.25   7.0     W   10.3   10.4   10.3  1008.6  0.00   0.0   0.028   0.000   25.1    47   13.0   24.8   8.71 1.1615    115    1    100.0    5 
29/07/15   3:50   10.4   10.4   10.4    84    7.8   4.0     W   0.33   6.0   WNW    9.8   10.4    9.8  1008.6  0.00   0.0   0.028   0.000   25.0    47   12.9   24.8   8.71 1.1617    116    1    100.0    5 
29/07/15   3:55   10.4   10.4   10.4    84    7.8   4.0   WNW   0.33   6.0   WNW    9.8   10.4    9.8  1008.6  0.00   0.0   0.028   0.000   25.0    47   12.9   24.8   8.71 1.1617    117    1    100.0    5 
29/07/15   4:00   10.3   10.4   10.3    85    7.9   3.0   WNW   0.25   6.0   WNW   10.2   10.3   10.2  1008.6  0.00   0.0   0.028   0.000   24.9    47   12.9   24.7   8.71 1.1620    115    1    100.0    5 
29/07/15   4:05   10.3   10.3   10.3    85    7.9   3.0   WNW   0.25   6.0    NW   10.2   10.3   10.2  1008.6  0.00   0.0   0.028   0.000   24.9    47   12.9   24.7   8.71 1.1620    115    1    100.0    5 
29/07/15   4:10   10.2   10.3   10.2    85    7.8   2.0     W   0.17   5.0   WNW   10.2   10.2   10.2  1008.5  0.00   0.0   0.028   0.000   24.9    47   12.8   24.7   8.71 1.1621    117    1    100.0    5 
29/07/15   4:15   10.2   10.2   10.2    85    7.8   3.0    NW   0.25   6.0    NW   10.0   10.2   10.1  1008.5  0.00   0.0   0.028   0.000   24.9    47   12.8   24.7   8.71 1.1622    117    1    100.0    5 
29/07/15   4:20   10.2   10.2   10.2    86    7.9   3.0   WNW   0.25   6.0     W   10.0   10.2   10.1  1008.5  0.00   0.0   0.028   0.000   24.9    47   12.8   24.7   8.71 1.1622    116    1    100.0    5 
29/07/15   4:25   10.2   10.2   10.1    87    8.1   4.0   WNW   0.33   8.0   WNW    9.6   10.3    9.7  1008.4  0.00   0.0   0.028   0.000   24.9    47   12.8   24.7   8.71 1.1621    117    1    100.0    5 
29/07/15   4:30   10.2   10.2   10.2    87    8.2   5.0   WNW   0.42   8.0   WNW    9.3   10.3    9.3  1008.5  0.00   0.0   0.028   0.000   24.8    47   12.8   24.7   8.72 1.1625    117    1    100.0    5 
29/07/15   4:35   10.2   10.2   10.2    87    8.1   4.0   WNW   0.33   8.0   WNW    9.6   10.3    9.7  1008.5  0.00   0.0   0.028   0.000   24.8    47   12.8   24.7   8.72 1.1624    117    1    100.0    5 
29/07/15   4:40   10.2   10.2   10.2    87    8.1   4.0   WNW   0.33   7.0   WNW    9.6   10.3    9.7  1008.6  0.00   0.0   0.028   0.000   24.8    47   12.7   24.6   8.72 1.1628    118    1    100.0    5 
29/07/15   4:45   10.1   10.2   10.1    87    8.0   3.0     W   0.25   7.0     W    9.9   10.2   10.1  1008.5  0.00   0.0   0.029   0.000   24.8    47   12.7   24.6   8.72 1.1627    115    1    100.0    5 
29/07/15   4:50   10.1   10.1   10.1    88    8.2   5.0     W   0.42   8.0   WSW    9.1   10.2    9.2  1008.5  0.00   0.0   0.029   0.000   24.8    47   12.7   24.6   8.72 1.1627    117    1    100.0    5 
29/07/15   4:55   10.1   10.1   10.1    88    8.2   6.0     W   0.50   9.0     W    8.8   10.2    8.9  1008.5  0.00   0.0   0.029   0.000   24.8    47   12.7   24.6   8.72 1.1627    115    1    100.0    5 
29/07/15   5:00   10.1   10.1   10.1    88    8.2   5.0     W   0.42   8.0     W    9.1   10.2    9.2  1008.5  0.00   0.0   0.029   0.000   24.7    47   12.6   24.6   8.72 1.1630    115    1    100.0    5 
29/07/15   5:05   10.0   10.1   10.0    88    8.1   5.0     W   0.42   8.0     W    9.0   10.1    9.1  1008.7  0.00   0.0   0.029   0.000   24.7    47   12.6   24.6   8.72 1.1632    116    1    100.0    5 
29/07/15   5:10   10.0   10.1   10.0    88    8.1   5.0   WNW   0.42   8.0   WNW    9.0   10.1    9.1  1008.6  0.00   0.0   0.029   0.000   24.7    47   12.6   24.5   8.72 1.1634    117    1    100.0    5 
29/07/15   5:15    9.9   10.0    9.9    88    8.0   4.0   WNW   0.33   6.0     W    9.3   10.1    9.4  1008.7  0.00   0.0   0.029   0.000   24.7    47   12.6   24.5   8.72 1.1635    116    1    100.0    5 
29/07/15   5:20    9.9    9.9    9.9    88    8.0   5.0   WNW   0.42   7.0   WNW    8.9   10.1    9.1  1008.6  0.00   0.0   0.029   0.000   24.7    47   12.6   24.5   8.72 1.1634    116    1    100.0    5 
29/07/15   5:25    9.9    9.9    9.9    89    8.2   4.0    NW   0.33   8.0    NW    9.3   10.1    9.5  1008.7  0.00   0.0   0.029   0.000   24.6    47   12.5   24.4   8.72 1.1637    117    1    100.0    5 
29/07/15   5:30    9.9    9.9    9.9    89    8.2   5.0    NW   0.42   8.0    NW    8.9   10.1    9.1  1008.7  0.00   0.0   0.029   0.000   24.6    47   12.5   24.4   8.72 1.1638    116    1    100.0    5 
29/07/15   5:35    9.8    9.9    9.8    89    8.1   5.0   WNW   0.42   7.0   WNW    8.8   10.0    8.9  1008.7  0.00   0.0   0.030   0.000   24.6    47   12.5   24.4   8.72 1.1637    116    1    100.0    5 
29/07/15   5:40    9.8    9.9    9.8    89    8.1   5.0   WNW   0.42   8.0   WNW    8.8   10.0    8.9  1008.7  0.00   0.0   0.030   0.000   24.6    47   12.5   24.4   8.73 1.1641    117    1    100.0    5 
29/07/15   5:45    9.9    9.9    9.8    89    8.2   5.0   WNW   0.42   8.0     W    8.9   10.1    9.1  1008.7  0.00   0.0   0.029   0.000   24.6    47   12.5   24.4   8.73 1.1641    117    1    100.0    5 
29/07/15   5:50    9.9    9.9    9.9    89    8.2   5.0   WNW   0.42   8.0    NW    8.9   10.1    9.1  1008.7  0.00   0.0   0.029   0.000   24.5    47   12.4   24.3   8.73 1.1643    117    1    100.0    5 
29/07/15   5:55    9.9    9.9    9.9    89    8.2   4.0    NW   0.33   8.0   WNW    9.3   10.1    9.5  1008.8  0.00   0.0   0.029   0.000   24.5    47   12.4   24.3   8.73 1.1644    115    1    100.0    5 
29/07/15   6:00    9.9    9.9    9.9    89    8.2   4.0    NW   0.33   7.0   WNW    9.3   10.1    9.4  1008.9  0.00   0.0   0.029   0.000   24.5    47   12.4   24.3   8.73 1.1645    117    1    100.0    5 
29/07/15   6:05    9.9    9.9    9.9    89    8.2   4.0   WNW   0.33   7.0   WNW    9.3   10.1    9.4  1008.8  0.00   0.0   0.029   0.000   24.4    47   12.4   24.3   8.73 1.1647    117    1    100.0    5 
29/07/15   6:10    9.9    9.9    9.9    89    8.2   4.0   WNW   0.33   7.0   WNW    9.3   10.1    9.5  1008.8  0.00   0.0   0.029   0.000   24.4    47   12.4   24.3   8.73 1.1647    115    1    100.0    5 
29/07/15   6:15    9.9    9.9    9.9    90    8.4   4.0   WNW   0.33   6.0   WNW    9.3   10.1    9.5  1008.8  0.00   0.0   0.029   0.000   24.4    47   12.4   24.3   8.73 1.1647    117    1    100.0    5 
29/07/15   6:20   10.0   10.0    9.9    90    8.4   5.0   WNW   0.42  10.0   NNW    9.0   10.2    9.2  1008.9  0.00   0.0   0.029   0.000   24.4    47   12.4   24.3   8.73 1.1648    116    1    100.0    5 
29/07/15   6:25   10.1   10.1   10.0    90    8.5   6.0   WNW   0.50   9.0     W    8.8   10.2    8.9  1009.1  0.00   0.0   0.029   0.000   24.4    47   12.3   24.3   8.73 1.1653    117    1    100.0    5 
29/07/15   6:30   10.2   10.2   10.1    90    8.6   6.0   WNW   0.50  12.0   WNW    8.9   10.3    9.1  1009.1  0.00   0.0   0.028   0.000   24.4    47   12.3   24.3   8.73 1.1653    116    1    100.0    5 
29/07/15   6:35   10.2   10.2   10.2    90    8.7   6.0     W   0.50  11.0     W    9.0   10.4    9.2  1009.1  0.00   0.0   0.028   0.000   24.4    47   12.3   24.3   8.73 1.1653    117    1    100.0    5 
29/07/15   6:40   10.3   10.3   10.2    90    8.8   7.0     W   0.58  11.0     W    8.8   10.4    8.9  1009.1  0.00   0.0   0.028   0.000   24.3    47   12.3   24.2   8.73 1.1656    116    1    100.0    5 
29/07/15   6:45   10.4   10.4   10.3    90    8.9   8.0     W   0.67  13.0     W    8.6   10.6    8.7  1009.1  0.00   0.0   0.027   0.000   24.4    47   12.3   24.3   8.73 1.1653    115    1    100.0    5 
29/07/15   6:50   10.6   10.6   10.4    90    9.0   8.0     W   0.67  13.0     W    8.7   10.7    8.8  1009.0  0.00   0.0   0.027   0.000   24.3    47   12.3   24.2   8.73 1.1655    116    1    100.0    5 
29/07/15   6:55   10.7   10.7   10.6    90    9.1   6.0     W   0.50  11.0     W    9.5   10.8    9.6  1009.0  0.00   0.0   0.027   0.000   24.3    47   12.3   24.2   8.73 1.1655    117    1    100.0    5 
29/07/15   7:00   10.7   10.8   10.7    90    9.1   7.0     W   0.58  11.0     W    9.3   10.8    9.4  1009.0  0.00   0.0   0.026   0.000   24.3    47   12.3   24.2   8.73 1.1654    117    1    100.0    5 
29/07/15   7:05   10.8   10.8   10.8    90    9.3   7.0     W   0.58  12.0     W    9.4   10.9    9.6  1009.0  0.00   0.0   0.026   0.000   24.3    47   12.3   24.2   8.73 1.1655    117    1    100.0    5 
29/07/15   7:10   11.0   11.0   10.8    90    9.4   6.0   WNW   0.50  10.0     W    9.9   11.1   10.0  1009.2  0.00   0.0   0.025   0.000   24.3    47   12.3   24.2   8.73 1.1657    117    1    100.0    5 
29/07/15   7:15   11.1   11.1   11.0    89    9.4   8.0     W   0.67  13.0     W    9.4   11.2    9.5  1009.2  0.00   0.0   0.025   0.000   24.3    47   12.3   24.2   8.73 1.1657    116    1    100.0    5 
29/07/15   7:20   11.3   11.3   11.2    89    9.5   7.0     W   0.58  13.0     W   10.0   11.3   10.1  1009.2  0.00   0.0   0.024   0.000   24.3    47   12.3   24.2   8.73 1.1657    117    1    100.0    5 
29/07/15   7:25   11.4   11.4   11.3    89    9.7   8.0   WNW   0.67  13.0   WNW    9.8   11.5    9.8  1009.3  0.00   0.0   0.024   0.000   24.3    47   12.3   24.2   8.73 1.1658    117    1    100.0    5 
29/07/15   7:30   11.6   11.6   11.4    88    9.6   7.0   WNW   0.58  12.0     W   10.3   11.6   10.3  1009.3  0.00   0.0   0.024   0.000   24.3    47   12.3   24.2   8.73 1.1658    116    1    100.0    5 
29/07/15   7:35   11.7   11.7   11.6    88    9.7   6.0   WNW   0.50  12.0    NW   10.7   11.7   10.7  1009.2  0.00   0.0   0.023   0.000   24.3    48   12.6   24.3   8.93 1.1654    115    1    100.0    5 
29/07/15   7:40   11.8   11.8   11.7    88    9.9   9.0   WNW   0.75  16.0   WNW    9.8   11.8    9.8  1009.2  0.00   0.0   0.023   0.000   24.3    48   12.6   24.3   8.93 1.1654    115    1    100.0    5 
78900